Time,TemperatureF,DewpointF,PressureIn,WindDirection,WindDirectionDegrees,WindSpeedMPH,WindSpeedGustMPH,Humidity,HourlyPrecipIn,Conditions,Clouds,dailyrainin,SoftwareType,DateUTC
2013-05-20 00:00:00,67.1,64.7,30.14,South,180,5.3,8.1,92,0.00,BKN,OVC,0.12,WeatherDisplay:10.37,2013-05-20 04:00:00,
2013-05-20 00:01:00,67.1,64.7,30.14,South,180,5.2,6.9,92,0.00,RA,OVC,0.00,WeatherDisplay:10.37,2013-05-20 04:01:00,
2013-05-20 00:02:00,67.1,64.7,30.14,South,180,6.3,8.0,92,0.00,RA,OVC,0.00,WeatherDisplay:10.37,2013-05-20 04:02:00,
2013-05-20 00:04:00,66.9,64.5,30.14,South,180,4.8,6.9,92,0.00,RA,OVC,0.00,WeatherDisplay:10.37,2013-05-20 04:04:00,
2013-05-20 00:07:00,66.9,64.5,30.14,South,180,5.8,10.4,92,0.00,RA,OVC,0.00,WeatherDisplay:10.37,2013-05-20 04:07:00,
2013-05-20 00:09:00,66.9,64.5,30.14,South,180,5.1,6.9,92,0.00,RA,OVC,0.00,WeatherDisplay:10.37,2013-05-20 04:09:00,
2013-05-20 00:11:00,66.9,64.5,30.14,South,180,4.4,9.2,92,0.00,OVC,,0.00,WeatherDisplay:10.37,2013-05-20 04:11:00,
2013-05-20 00:12:00,66.9,64.5,30.14,South,180,4.2,6.9,92,0.00,OVC,,0.00,WeatherDisplay:10.37,2013-05-20 04:12:00,
2013-05-20 00:16:00,66.9,64.5,30.14,South,180,3.0,10.0,92,0.00,OVC,OVC,0.00,WeatherDisplay:10.37,2013-05-20 04:16:00,
2013-05-20 00:18:00,66.9,64.5,30.14,South,180,4.1,6.0,92,0.00,OVC,,0.00,WeatherDisplay:10.37,2013-05-20 04:18:00,
2013-05-20 00:19:00,66.9,64.5,30.14,South,180,4.2,6.9,92,0.00,OVC,,0.00,WeatherDisplay:10.37,2013-05-20 04:19:00,
2013-05-20 00:22:00,66.9,64.5,30.13,South,180,1.5,3.5,92,0.00,OVC,,0.00,WeatherDisplay:10.37,2013-05-20 04:22:00,
2013-05-20 00:23:00,66.9,64.5,30.13,South,180,2.9,4.6,92,0.00,OVC,,0.00,WeatherDisplay:10.37,2013-05-20 04:23:00,
2013-05-20 00:24:00,66.9,64.5,30.13,South,180,4.3,10.4,92,0.00,OVC,,0.00,WeatherDisplay:10.37,2013-05-20 04:24:00,
2013-05-20 00:26:00,66.9,64.5,30.13,South,180,4.0,8.1,92,0.00,OVC,,0.00,WeatherDisplay:10.37,2013-05-20 04:26:00,
2013-05-20 00:28:00,66.9,64.5,30.13,South,180,5.3,6.9,92,0.00,OVC,,0.00,WeatherDisplay:10.37,2013-05-20 04:28:00,
2013-05-20 00:29:00,66.9,64.5,30.13,South,180,3.4,5.8,92,0.00,OVC,,0.00,WeatherDisplay:10.37,2013-05-20 04:29:00,
2013-05-20 00:30:00,66.9,64.5,30.13,South,180,3.7,6.0,92,0.00,OVC,,0.00,WeatherDisplay:10.37,2013-05-20 04:30:00,
2013-05-20 00:33:00,66.9,64.5,30.13,South,179,1.0,3.5,92,0.00,OVC,,0.00,WeatherDisplay:10.37,2013-05-20 04:33:00,
2013-05-20 00:34:00,66.9,64.5,30.13,South,179,3.3,6.0,92,0.00,OVC,,0.00,WeatherDisplay:10.37,2013-05-20 04:34:00,
2013-05-20 00:35:00,66.9,64.5,30.13,South,179,4.2,5.8,92,0.00,OVC,,0.00,WeatherDisplay:10.37,2013-05-20 04:35:00,
2013-05-20 00:38:00,66.9,64.5,30.13,South,179,3.3,6.0,92,0.00,OVC,,0.00,WeatherDisplay:10.37,2013-05-20 04:38:00,
2013-05-20 00:40:00,66.9,64.5,30.13,South,179,3.4,5.8,92,0.00,OVC,,0.00,WeatherDisplay:10.37,2013-05-20 04:40:00,
2013-05-20 00:41:00,66.9,64.5,30.13,South,179,3.0,4.6,92,0.00,OVC,,0.00,WeatherDisplay:10.37,2013-05-20 04:41:00,
2013-05-20 00:45:00,66.9,64.5,30.13,South,179,3.0,7.0,92,0.00,OVC,OVC,0.00,WeatherDisplay:10.37,2013-05-20 04:45:00,
2013-05-20 00:46:00,66.9,64.8,30.13,South,179,0.1,3.5,93,0.00,OVC,,0.00,WeatherDisplay:10.37,2013-05-20 04:46:00,
2013-05-20 00:47:00,66.9,64.8,30.13,South,179,0.4,4.0,93,0.00,OVC,,0.00,WeatherDisplay:10.37,2013-05-20 04:47:00,
2013-05-20 00:48:00,66.9,64.8,30.13,South,179,2.0,5.8,93,0.00,OVC,,0.00,WeatherDisplay:10.37,2013-05-20 04:48:00,
2013-05-20 00:52:00,66.9,64.8,30.13,South,179,2.9,4.0,93,0.00,OVC,,0.00,WeatherDisplay:10.37,2013-05-20 04:52:00,
2013-05-20 00:53:00,66.9,64.8,30.13,South,179,3.0,4.6,93,0.00,OVC,,0.00,WeatherDisplay:10.37,2013-05-20 04:53:00,
2013-05-20 00:55:00,66.9,64.8,30.13,South,179,0.1,1.1,93,0.00,OVC,,0.00,WeatherDisplay:10.37,2013-05-20 04:55:00,
2013-05-20 00:58:00,66.9,64.8,30.13,South,179,4.0,5.8,93,0.00,OVC,,0.00,WeatherDisplay:10.37,2013-05-20 04:58:00,
2013-05-20 01:00:00,66.9,64.8,30.13,South,179,3.0,7.0,93,0.00,OVC,OVC,0.00,WeatherDisplay:10.37,2013-05-20 05:00:00,
2013-05-20 01:03:00,66.9,64.8,30.13,South,176,6.3,10.4,93,0.00,OVC,,0.00,WeatherDisplay:10.37,2013-05-20 05:03:00,
2013-05-20 01:06:00,66.9,64.8,30.13,South,175,1.5,3.5,93,0.00,OVC,,0.00,WeatherDisplay:10.37,2013-05-20 05:06:00,
2013-05-20 01:07:00,66.9,64.8,30.12,South,175,3.4,4.6,93,0.00,OVC,,0.00,WeatherDisplay:10.37,2013-05-20 05:07:00,
2013-05-20 01:11:00,66.9,64.8,30.12,South,175,2.0,3.5,93,0.00,OVC,,0.00,WeatherDisplay:10.37,2013-05-20 05:11:00,
2013-05-20 01:12:00,66.9,64.8,30.12,South,175,2.7,3.5,93,0.00,OVC,,0.00,WeatherDisplay:10.37,2013-05-20 05:12:00,
2013-05-20 01:13:00,66.9,64.8,30.12,South,175,3.5,6.9,93,0.00,OVC,,0.00,WeatherDisplay:10.37,2013-05-20 05:13:00,
2013-05-20 01:15:00,66.9,64.8,30.12,South,175,3.5,5.8,93,0.00,OVC,,0.00,WeatherDisplay:10.37,2013-05-20 05:15:00,
2013-05-20 01:18:00,66.8,64.7,30.12,South,175,3.3,4.6,93,0.00,OVC,,0.00,WeatherDisplay:10.37,2013-05-20 05:18:00,
2013-05-20 01:19:00,66.9,64.8,30.12,South,175,2.8,4.6,93,0.00,OVC,,0.00,WeatherDisplay:10.37,2013-05-20 05:19:00,
2013-05-20 01:20:00,66.8,64.7,30.11,South,175,2.4,3.5,93,0.00,OVC,,0.00,WeatherDisplay:10.37,2013-05-20 05:20:00,
2013-05-20 01:21:00,66.8,64.7,30.11,South,175,3.8,4.6,93,0.00,OVC,,0.00,WeatherDisplay:10.37,2013-05-20 05:21:00,
2013-05-20 01:23:00,66.8,64.7,30.11,South,174,5.1,11.5,93,0.00,OVC,,0.00,WeatherDisplay:10.37,2013-05-20 05:23:00,
2013-05-20 01:26:00,66.8,65.0,30.11,South,174,4.7,5.8,94,0.00,OVC,,0.00,WeatherDisplay:10.37,2013-05-20 05:26:00,
2013-05-20 01:29:00,66.8,65.0,30.11,South,174,4.0,4.6,94,0.00,OVC,,0.00,WeatherDisplay:10.37,2013-05-20 05:29:00,
2013-05-20 01:30:00,66.8,65.0,30.11,South,174,4.4,7.0,94,0.00,OVC,,0.00,WeatherDisplay:10.37,2013-05-20 05:30:00,
2013-05-20 01:31:00,66.8,65.0,30.11,South,174,4.2,6.9,94,0.00,OVC,,0.00,WeatherDisplay:10.37,2013-05-20 05:31:00,
2013-05-20 01:33:00,66.8,65.0,30.11,South,174,4.1,6.0,94,0.00,OVC,,0.00,WeatherDisplay:10.37,2013-05-20 05:33:00,
2013-05-20 01:34:00,66.8,65.0,30.11,South,174,5.4,10.4,94,0.00,OVC,,0.00,WeatherDisplay:10.37,2013-05-20 05:34:00,
2013-05-20 01:36:00,66.8,65.0,30.11,South,174,6.2,11.5,94,0.00,OVC,,0.00,WeatherDisplay:10.37,2013-05-20 05:36:00,
2013-05-20 01:37:00,66.8,65.0,30.11,South,174,3.9,5.0,94,0.00,OVC,,0.00,WeatherDisplay:10.37,2013-05-20 05:37:00,
2013-05-20 01:39:00,66.8,65.0,30.11,South,173,4.2,6.9,94,0.00,OVC,,0.00,WeatherDisplay:10.37,2013-05-20 05:39:00,
2013-05-20 01:41:00,66.8,65.0,30.11,South,173,4.4,5.8,94,0.00,OVC,,0.00,WeatherDisplay:10.37,2013-05-20 05:41:00,
2013-05-20 01:43:00,66.8,65.0,30.11,South,173,4.3,8.0,94,0.00,OVC,,0.00,WeatherDisplay:10.37,2013-05-20 05:43:00,
2013-05-20 01:45:00,66.8,65.0,30.11,South,173,6.0,12.0,94,0.00,OVC,OVC,0.00,WeatherDisplay:10.37,2013-05-20 05:45:00,
2013-05-20 01:46:00,66.8,65.0,30.11,South,173,4.2,5.8,94,0.00,OVC,,0.00,WeatherDisplay:10.37,2013-05-20 05:46:00,
2013-05-20 01:49:00,66.8,65.0,30.11,South,173,3.3,4.6,94,0.00,OVC,,0.00,WeatherDisplay:10.37,2013-05-20 05:49:00,
2013-05-20 01:50:00,66.8,65.0,30.11,South,174,4.0,7.0,94,0.00,OVC,,0.00,WeatherDisplay:10.37,2013-05-20 05:50:00,
2013-05-20 01:51:00,66.8,65.0,30.11,South,173,4.7,7.0,94,0.00,OVC,,0.00,WeatherDisplay:10.37,2013-05-20 05:51:00,
2013-05-20 01:52:00,66.8,65.0,30.11,South,173,5.1,6.9,94,0.00,OVC,,0.00,WeatherDisplay:10.37,2013-05-20 05:52:00,
2013-05-20 01:53:00,66.8,65.0,30.11,South,174,4.9,6.9,94,0.00,OVC,,0.00,WeatherDisplay:10.37,2013-05-20 05:53:00,
2013-05-20 01:55:00,66.8,65.0,30.11,South,174,4.8,6.9,94,0.00,OVC,,0.00,WeatherDisplay:10.37,2013-05-20 05:55:00,
2013-05-20 01:56:00,66.8,65.0,30.11,South,174,4.2,6.9,94,0.00,OVC,,0.00,WeatherDisplay:10.37,2013-05-20 05:56:00,
2013-05-20 01:57:00,66.8,65.0,30.11,South,174,4.3,5.8,94,0.00,OVC,,0.00,WeatherDisplay:10.37,2013-05-20 05:57:00,
2013-05-20 01:59:00,66.8,65.0,30.11,South,180,7.3,10.4,94,0.00,OVC,,0.00,WeatherDisplay:10.37,2013-05-20 05:59:00,
2013-05-20 02:01:00,66.8,65.0,30.11,South,181,6.3,9.2,94,0.00,OVC,,0.00,WeatherDisplay:10.37,2013-05-20 06:01:00,
2013-05-20 02:02:00,66.8,65.0,30.11,South,181,7.1,9.2,94,0.00,OVC,,0.00,WeatherDisplay:10.37,2013-05-20 06:02:00,
2013-05-20 02:03:00,66.8,65.0,30.11,South,181,5.3,11.5,94,0.00,OVC,,0.00,WeatherDisplay:10.37,2013-05-20 06:03:00,
2013-05-20 02:04:00,66.8,65.0,30.11,South,181,4.9,6.9,94,0.00,OVC,,0.00,WeatherDisplay:10.37,2013-05-20 06:04:00,
2013-05-20 02:06:00,66.8,65.0,30.11,South,181,4.8,5.8,94,0.00,OVC,,0.00,WeatherDisplay:10.37,2013-05-20 06:06:00,
2013-05-20 02:08:00,66.8,65.3,30.11,South,181,3.0,4.6,95,0.00,OVC,,0.00,WeatherDisplay:10.37,2013-05-20 06:08:00,
2013-05-20 02:09:00,66.8,65.3,30.11,South,181,5.0,8.1,95,0.00,OVC,,0.00,WeatherDisplay:10.37,2013-05-20 06:09:00,
2013-05-20 02:10:00,66.8,65.3,30.11,South,181,4.0,5.8,95,0.00,OVC,,0.00,WeatherDisplay:10.37,2013-05-20 06:10:00,
2013-05-20 02:13:00,66.8,65.3,30.11,South,181,3.1,4.6,95,0.00,OVC,,0.00,WeatherDisplay:10.37,2013-05-20 06:13:00,
2013-05-20 02:14:00,66.8,65.3,30.11,South,181,4.0,5.0,95,0.00,OVC,,0.00,WeatherDisplay:10.37,2013-05-20 06:14:00,
2013-05-20 02:16:00,66.8,65.3,30.11,South,181,4.8,5.8,95,0.00,OVC,,0.00,WeatherDisplay:10.37,2013-05-20 06:16:00,
2013-05-20 02:18:00,66.8,65.3,30.11,South,181,4.4,5.8,95,0.00,OVC,,0.00,WeatherDisplay:10.37,2013-05-20 06:18:00,
2013-05-20 02:20:00,66.8,65.3,30.11,South,181,2.8,4.6,95,0.00,OVC,,0.00,WeatherDisplay:10.37,2013-05-20 06:20:00,
2013-05-20 02:21:00,66.8,65.3,30.11,South,181,0.3,2.0,95,0.00,OVC,,0.00,WeatherDisplay:10.37,2013-05-20 06:21:00,
2013-05-20 02:23:00,66.8,65.3,30.11,South,181,0.1,4.0,95,0.00,OVC,,0.00,WeatherDisplay:10.37,2013-05-20 06:23:00,
2013-05-20 02:24:00,66.8,65.3,30.11,South,181,5.4,6.9,95,0.00,OVC,,0.00,WeatherDisplay:10.37,2013-05-20 06:24:00,
2013-05-20 02:25:00,66.8,65.3,30.11,South,181,5.0,6.9,95,0.00,OVC,,0.00,WeatherDisplay:10.37,2013-05-20 06:25:00,
2013-05-20 02:27:00,66.8,65.3,30.11,South,181,4.3,6.0,95,0.00,OVC,,0.00,WeatherDisplay:10.37,2013-05-20 06:27:00,
2013-05-20 02:28:00,66.8,65.3,30.11,South,181,5.3,5.8,95,0.00,OVC,,0.00,WeatherDisplay:10.37,2013-05-20 06:28:00,
2013-05-20 02:30:00,66.8,65.3,30.11,South,181,3.0,7.0,95,0.00,OVC,OVC,0.00,WeatherDisplay:10.37,2013-05-20 06:30:00,
2013-05-20 02:32:00,66.8,65.3,30.11,South,181,3.5,4.6,95,0.00,OVC,,0.00,WeatherDisplay:10.37,2013-05-20 06:32:00,
2013-05-20 02:34:00,66.8,65.3,30.11,South,181,1.1,3.5,95,0.00,OVC,,0.00,WeatherDisplay:10.37,2013-05-20 06:34:00,
2013-05-20 02:35:00,66.8,65.3,30.11,South,181,0.0,3.5,95,0.00,OVC,,0.00,WeatherDisplay:10.37,2013-05-20 06:35:00,
2013-05-20 02:37:00,66.8,65.3,30.11,South,181,2.6,5.0,95,0.00,OVC,,0.00,WeatherDisplay:10.37,2013-05-20 06:37:00,
2013-05-20 02:38:00,66.8,65.6,30.11,South,181,1.8,4.6,96,0.00,OVC,,0.00,WeatherDisplay:10.37,2013-05-20 06:38:00,
2013-05-20 02:41:00,66.8,65.6,30.11,South,181,0.0,0.0,96,0.00,OVC,,0.00,WeatherDisplay:10.37,2013-05-20 06:41:00,
2013-05-20 02:42:00,66.8,65.6,30.11,South,181,0.0,0.0,96,0.00,OVC,,0.00,WeatherDisplay:10.37,2013-05-20 06:42:00,
2013-05-20 02:46:00,66.8,65.6,30.11,South,181,3.9,5.8,96,0.00,OVC,,0.00,WeatherDisplay:10.37,2013-05-20 06:46:00,
2013-05-20 02:47:00,66.8,65.6,30.11,South,181,3.2,3.5,96,0.00,OVC,,0.00,WeatherDisplay:10.37,2013-05-20 06:47:00,
2013-05-20 02:48:00,66.8,65.6,30.11,South,181,3.5,3.5,96,0.00,OVC,,0.00,WeatherDisplay:10.37,2013-05-20 06:48:00,
2013-05-20 02:51:00,66.8,65.6,30.11,South,181,2.4,3.5,96,0.00,OVC,,0.00,WeatherDisplay:10.37,2013-05-20 06:51:00,
2013-05-20 02:53:00,66.8,65.6,30.11,South,181,2.1,3.5,96,0.00,OVC,,0.00,WeatherDisplay:10.37,2013-05-20 06:53:00,
2013-05-20 02:54:00,66.8,65.6,30.11,South,181,1.9,2.3,96,0.00,OVC,,0.00,WeatherDisplay:10.37,2013-05-20 06:54:00,
2013-05-20 02:56:00,66.8,65.6,30.11,South,181,3.1,3.5,96,0.00,OVC,,0.00,WeatherDisplay:10.37,2013-05-20 06:56:00,
2013-05-20 02:57:00,66.8,65.6,30.11,South,181,2.4,4.6,96,0.00,OVC,,0.00,WeatherDisplay:10.37,2013-05-20 06:57:00,
2013-05-20 02:59:00,66.8,65.6,30.11,South,181,0.9,3.5,96,0.00,OVC,,0.00,WeatherDisplay:10.37,2013-05-20 06:59:00,
2013-05-20 03:00:00,66.8,65.6,30.11,South,181,0.0,6.0,96,0.00,OVC,OVC,0.00,WeatherDisplay:10.37,2013-05-20 07:00:00,
2013-05-20 03:01:00,66.8,65.6,30.11,South,181,4.1,5.0,96,0.00,OVC,,0.00,WeatherDisplay:10.37,2013-05-20 07:01:00,
2013-05-20 03:02:00,66.8,65.6,30.11,South,181,2.8,5.0,96,0.00,OVC,,0.00,WeatherDisplay:10.37,2013-05-20 07:02:00,
2013-05-20 03:06:00,66.8,65.6,30.11,South,181,2.5,3.5,96,0.00,OVC,,0.00,WeatherDisplay:10.37,2013-05-20 07:06:00,
2013-05-20 03:07:00,66.8,65.6,30.11,South,181,2.5,3.5,96,0.00,OVC,,0.00,WeatherDisplay:10.37,2013-05-20 07:07:00,
2013-05-20 03:09:00,66.8,65.6,30.11,South,181,2.9,3.5,96,0.00,OVC,,0.00,WeatherDisplay:10.37,2013-05-20 07:09:00,
2013-05-20 03:11:00,66.8,65.6,30.11,South,181,4.2,4.2,96,0.00,OVC,,0.00,WeatherDisplay:10.37,2013-05-20 07:11:00,
2013-05-20 03:13:00,66.8,65.6,30.11,South,181,5.6,6.0,96,0.00,OVC,,0.00,WeatherDisplay:10.37,2013-05-20 07:13:00,
2013-05-20 03:15:00,66.8,65.6,30.11,South,181,4.1,5.8,96,0.00,OVC,,0.00,WeatherDisplay:10.37,2013-05-20 07:15:00,
2013-05-20 03:16:00,66.8,65.6,30.11,South,181,4.2,5.0,96,0.00,OVC,,0.00,WeatherDisplay:10.37,2013-05-20 07:16:00,
2013-05-20 03:20:00,66.9,65.7,30.11,South,181,0.0,0.0,96,0.00,OVC,,0.00,WeatherDisplay:10.37,2013-05-20 07:20:00,
2013-05-20 03:21:00,66.8,65.6,30.10,South,181,0.0,0.0,96,0.00,OVC,,0.00,WeatherDisplay:10.37,2013-05-20 07:21:00,
2013-05-20 03:23:00,66.8,65.6,30.10,South,181,4.5,6.0,96,0.00,OVC,,0.00,WeatherDisplay:10.37,2013-05-20 07:23:00,
2013-05-20 03:26:00,66.9,65.7,30.10,South,181,2.6,3.5,96,0.00,OVC,,0.00,WeatherDisplay:10.37,2013-05-20 07:26:00,
2013-05-20 03:27:00,66.9,65.7,30.10,South,181,4.5,6.0,96,0.00,OVC,,0.00,WeatherDisplay:10.37,2013-05-20 07:27:00,
2013-05-20 03:28:00,66.9,65.7,30.10,South,181,4.2,5.8,96,0.00,OVC,,0.00,WeatherDisplay:10.37,2013-05-20 07:28:00,
2013-05-20 03:32:00,66.9,65.7,30.10,South,181,3.5,3.5,96,0.00,OVC,,0.00,WeatherDisplay:10.37,2013-05-20 07:32:00,
2013-05-20 03:33:00,66.9,65.7,30.10,South,181,3.0,4.0,96,0.00,OVC,,0.00,WeatherDisplay:10.37,2013-05-20 07:33:00,
2013-05-20 03:34:00,66.9,65.7,30.10,South,181,3.2,3.5,96,0.00,OVC,,0.00,WeatherDisplay:10.37,2013-05-20 07:34:00,
2013-05-20 03:35:00,66.9,65.7,30.10,South,181,2.0,3.5,96,0.00,OVC,,0.00,WeatherDisplay:10.37,2013-05-20 07:35:00,
2013-05-20 03:38:00,66.9,65.7,30.10,South,181,0.0,2.3,96,0.00,OVC,,0.00,WeatherDisplay:10.37,2013-05-20 07:38:00,
2013-05-20 03:39:00,66.9,65.7,30.10,South,181,1.3,5.0,96,0.00,OVC,,0.00,WeatherDisplay:10.37,2013-05-20 07:39:00,
2013-05-20 03:40:00,66.9,65.7,30.10,South,181,2.9,4.6,96,0.00,OVC,,0.00,WeatherDisplay:10.37,2013-05-20 07:40:00,
2013-05-20 03:43:00,66.9,65.7,30.10,South,181,0.0,1.1,96,0.00,OVC,,0.00,WeatherDisplay:10.37,2013-05-20 07:43:00,
2013-05-20 03:44:00,66.9,65.7,30.10,South,181,0.5,4.0,96,0.00,OVC,,0.00,WeatherDisplay:10.37,2013-05-20 07:44:00,
2013-05-20 03:45:00,66.9,65.7,30.10,South,181,2.4,3.5,96,0.00,OVC,,0.00,WeatherDisplay:10.37,2013-05-20 07:45:00,
2013-05-20 03:48:00,66.9,65.7,30.10,South,181,0.0,0.0,96,0.00,OVC,,0.00,WeatherDisplay:10.37,2013-05-20 07:48:00,
2013-05-20 03:49:00,66.9,65.7,30.10,South,181,0.0,0.0,96,0.00,OVC,,0.00,WeatherDisplay:10.37,2013-05-20 07:49:00,
2013-05-20 03:50:00,66.9,65.7,30.10,South,181,0.0,0.0,96,0.00,OVC,,0.00,WeatherDisplay:10.37,2013-05-20 07:50:00,
2013-05-20 03:52:00,66.8,65.6,30.10,South,181,0.0,0.0,96,0.00,OVC,,0.00,WeatherDisplay:10.37,2013-05-20 07:52:00,
2013-05-20 03:54:00,66.8,65.6,30.10,South,181,0.0,0.0,96,0.00,OVC,,0.00,WeatherDisplay:10.37,2013-05-20 07:54:00,
2013-05-20 03:55:00,66.9,65.7,30.10,South,181,0.0,0.0,96,0.00,OVC,,0.00,WeatherDisplay:10.37,2013-05-20 07:55:00,
2013-05-20 03:56:00,66.9,65.7,30.10,South,181,0.0,0.0,96,0.00,OVC,,0.00,WeatherDisplay:10.37,2013-05-20 07:56:00,
2013-05-20 03:58:00,66.8,65.6,30.10,South,181,0.0,0.0,96,0.00,OVC,,0.00,WeatherDisplay:10.37,2013-05-20 07:58:00,
2013-05-20 03:59:00,66.8,65.6,30.10,South,181,0.0,0.0,96,0.00,OVC,,0.00,WeatherDisplay:10.37,2013-05-20 07:59:00,
2013-05-20 04:00:00,66.8,65.6,30.10,South,181,0.0,0.0,96,0.00,OVC,,0.00,WeatherDisplay:10.37,2013-05-20 08:00:00,
2013-05-20 04:03:00,66.8,65.6,30.10,South,181,0.0,0.0,96,0.00,OVC,,0.00,WeatherDisplay:10.37,2013-05-20 08:03:00,
2013-05-20 04:04:00,66.8,65.6,30.10,South,181,0.0,0.0,96,0.00,OVC,,0.00,WeatherDisplay:10.37,2013-05-20 08:04:00,
2013-05-20 04:05:00,66.8,65.6,30.10,South,181,0.0,0.0,96,0.00,OVC,,0.00,WeatherDisplay:10.37,2013-05-20 08:05:00,
2013-05-20 04:06:00,66.8,65.6,30.10,South,181,0.0,0.0,96,0.00,OVC,,0.00,WeatherDisplay:10.37,2013-05-20 08:06:00,
2013-05-20 04:10:00,66.8,65.6,30.10,South,181,0.0,3.5,96,0.00,OVC,,0.00,WeatherDisplay:10.37,2013-05-20 08:10:00,
2013-05-20 04:11:00,66.8,65.6,30.10,South,181,0.0,0.0,96,0.00,OVC,,0.00,WeatherDisplay:10.37,2013-05-20 08:11:00,
2013-05-20 04:13:00,66.8,65.6,30.10,South,181,0.0,0.0,96,0.00,OVC,,0.00,WeatherDisplay:10.37,2013-05-20 08:13:00,
2013-05-20 04:14:00,66.8,65.6,30.10,South,181,0.0,0.0,96,0.00,OVC,,0.00,WeatherDisplay:10.37,2013-05-20 08:14:00,
2013-05-20 04:17:00,66.8,65.6,30.10,South,181,3.2,3.5,96,0.00,OVC,,0.00,WeatherDisplay:10.37,2013-05-20 08:17:00,
2013-05-20 04:19:00,66.8,65.6,30.10,South,181,3.0,3.5,96,0.00,OVC,,0.00,WeatherDisplay:10.37,2013-05-20 08:19:00,
2013-05-20 04:22:00,66.8,65.6,30.10,South,181,0.3,3.5,96,0.00,OVC,,0.00,WeatherDisplay:10.37,2013-05-20 08:22:00,
2013-05-20 04:25:00,66.8,65.6,30.10,South,181,0.0,0.0,96,0.00,OVC,,0.00,WeatherDisplay:10.37,2013-05-20 08:25:00,
2013-05-20 04:26:00,66.8,65.6,30.10,South,181,0.0,0.0,96,0.00,OVC,,0.00,WeatherDisplay:10.37,2013-05-20 08:26:00,
2013-05-20 04:27:00,66.8,65.6,30.10,South,181,0.0,0.0,96,0.00,OVC,,0.00,WeatherDisplay:10.37,2013-05-20 08:27:00,
2013-05-20 04:29:00,66.8,65.6,30.10,South,181,0.0,0.0,96,0.00,OVC,,0.00,WeatherDisplay:10.37,2013-05-20 08:29:00,
2013-05-20 04:31:00,66.8,65.6,30.10,South,181,0.0,0.0,96,0.00,OVC,,0.00,WeatherDisplay:10.37,2013-05-20 08:31:00,
2013-05-20 04:32:00,66.8,65.6,30.10,South,181,0.0,0.0,96,0.00,OVC,,0.00,WeatherDisplay:10.37,2013-05-20 08:32:00,
2013-05-20 04:35:00,66.8,65.6,30.10,South,181,0.0,3.5,96,0.00,OVC,,0.00,WeatherDisplay:10.37,2013-05-20 08:35:00,
2013-05-20 04:36:00,66.8,65.6,30.10,South,181,0.0,0.0,96,0.00,OVC,,0.00,WeatherDisplay:10.37,2013-05-20 08:36:00,
2013-05-20 04:37:00,66.8,65.6,30.10,South,181,0.0,0.0,96,0.00,OVC,,0.00,WeatherDisplay:10.37,2013-05-20 08:37:00,
2013-05-20 04:38:00,66.8,65.6,30.10,South,181,0.2,2.0,96,0.00,OVC,,0.00,WeatherDisplay:10.37,2013-05-20 08:38:00,
2013-05-20 04:39:00,66.8,65.6,30.10,South,181,1.2,3.5,96,0.00,OVC,,0.00,WeatherDisplay:10.37,2013-05-20 08:39:00,
2013-05-20 04:43:00,66.8,65.6,30.10,South,181,0.0,3.5,96,0.00,OVC,,0.00,WeatherDisplay:10.37,2013-05-20 08:43:00,
2013-05-20 04:44:00,66.9,65.7,30.10,South,181,0.0,0.0,96,0.00,OVC,,0.00,WeatherDisplay:10.37,2013-05-20 08:44:00,
2013-05-20 04:45:00,66.9,65.7,30.10,South,181,0.0,4.0,96,0.00,OVC,OVC,0.00,WeatherDisplay:10.37,2013-05-20 08:45:00,
2013-05-20 04:48:00,66.8,65.6,30.10,South,181,0.0,0.0,96,0.00,OVC,,0.00,WeatherDisplay:10.37,2013-05-20 08:48:00,
2013-05-20 04:50:00,66.8,65.6,30.10,South,181,0.0,0.0,96,0.00,OVC,,0.00,WeatherDisplay:10.37,2013-05-20 08:50:00,
2013-05-20 04:51:00,66.8,65.6,30.10,South,181,0.0,0.0,96,0.00,OVC,,0.00,WeatherDisplay:10.37,2013-05-20 08:51:00,
2013-05-20 04:53:00,66.8,65.6,30.10,South,181,0.0,1.1,96,0.00,OVC,,0.00,WeatherDisplay:10.37,2013-05-20 08:53:00,
2013-05-20 04:54:00,66.8,65.6,30.10,South,181,0.0,0.0,96,0.00,OVC,,0.00,WeatherDisplay:10.37,2013-05-20 08:54:00,
2013-05-20 04:56:00,66.8,65.6,30.10,South,181,3.0,3.5,96,0.00,OVC,,0.00,WeatherDisplay:10.37,2013-05-20 08:56:00,
2013-05-20 04:57:00,66.8,65.6,30.10,South,181,3.3,4.6,96,0.00,OVC,,0.00,WeatherDisplay:10.37,2013-05-20 08:57:00,
2013-05-20 05:00:00,66.9,65.7,30.10,South,181,3.0,5.0,96,0.00,OVC,OVC,0.00,WeatherDisplay:10.37,2013-05-20 09:00:00,
2013-05-20 05:02:00,66.9,65.7,30.10,South,181,0.6,4.0,96,0.00,-RA,OVC,0.00,WeatherDisplay:10.37,2013-05-20 09:02:00,
2013-05-20 05:03:00,66.9,65.7,30.10,South,181,3.9,4.6,96,0.00,-RA,OVC,0.00,WeatherDisplay:10.37,2013-05-20 09:03:00,
2013-05-20 05:06:00,66.8,65.6,30.10,South,181,0.0,0.0,96,0.00,-RA,OVC,0.00,WeatherDisplay:10.37,2013-05-20 09:06:00,
2013-05-20 05:07:00,66.9,65.7,30.10,South,181,0.5,4.6,96,0.00,-RA,OVC,0.00,WeatherDisplay:10.37,2013-05-20 09:07:00,
2013-05-20 05:08:00,66.9,65.7,30.10,South,181,2.0,3.5,96,0.00,-RA,OVC,0.00,WeatherDisplay:10.37,2013-05-20 09:08:00,
2013-05-20 05:09:00,66.9,65.7,30.10,South,181,1.2,3.5,96,0.00,-RA,OVC,0.00,WeatherDisplay:10.37,2013-05-20 09:09:00,
2013-05-20 05:13:00,66.9,65.7,30.10,South,181,3.3,3.5,96,0.00,-RA,OVC,0.00,WeatherDisplay:10.37,2013-05-20 09:13:00,
2013-05-20 05:14:00,66.9,65.7,30.10,South,181,2.7,4.6,96,0.00,-RA,OVC,0.00,WeatherDisplay:10.37,2013-05-20 09:14:00,
2013-05-20 05:17:00,66.9,65.7,30.10,South,181,0.9,2.0,96,0.00,-RA,OVC,0.00,WeatherDisplay:10.37,2013-05-20 09:17:00,
2013-05-20 05:18:00,66.9,65.7,30.10,South,181,3.3,6.0,96,0.00,-RA,OVC,0.00,WeatherDisplay:10.37,2013-05-20 09:18:00,
2013-05-20 05:19:00,66.9,65.7,30.10,South,181,4.3,5.8,96,0.00,-RA,OVC,0.00,WeatherDisplay:10.37,2013-05-20 09:19:00,
2013-05-20 05:23:00,66.9,65.7,30.09,South,181,3.4,3.5,96,0.00,-RA,OVC,0.00,WeatherDisplay:10.37,2013-05-20 09:23:00,
2013-05-20 05:24:00,66.9,65.7,30.09,South,181,2.4,3.5,96,0.00,-RA,OVC,0.00,WeatherDisplay:10.37,2013-05-20 09:24:00,
2013-05-20 05:25:00,66.9,65.7,30.09,South,181,0.2,3.5,96,0.00,-RA,OVC,0.00,WeatherDisplay:10.37,2013-05-20 09:25:00,
2013-05-20 05:30:00,66.9,65.7,30.09,South,181,0.0,6.0,96,0.00,-RA,OVC,0.00,WeatherDisplay:10.37,2013-05-20 09:30:00,
2013-05-20 05:32:00,66.9,65.7,30.09,South,181,2.1,3.5,96,0.00,-RA,OVC,0.00,WeatherDisplay:10.37,2013-05-20 09:32:00,
2013-05-20 05:35:00,66.9,65.7,30.09,South,181,0.7,3.5,96,0.00,-RA,OVC,0.00,WeatherDisplay:10.37,2013-05-20 09:35:00,
2013-05-20 05:38:00,66.9,65.7,30.09,South,181,2.5,3.5,96,0.00,-RA,OVC,0.00,WeatherDisplay:10.37,2013-05-20 09:38:00,
2013-05-20 05:39:00,66.9,65.7,30.09,South,181,0.2,2.3,96,0.00,-RA,OVC,0.00,WeatherDisplay:10.37,2013-05-20 09:39:00,
2013-05-20 05:41:00,66.9,65.7,30.09,South,181,0.0,1.1,96,0.00,-RA,OVC,0.00,WeatherDisplay:10.37,2013-05-20 09:41:00,
2013-05-20 05:43:00,66.9,65.7,30.09,South,181,0.0,0.0,96,0.00,-RA,OVC,0.00,WeatherDisplay:10.37,2013-05-20 09:43:00,
2013-05-20 05:44:00,66.9,65.7,30.09,South,181,0.0,0.0,96,0.00,-RA,OVC,0.00,WeatherDisplay:10.37,2013-05-20 09:44:00,
2013-05-20 05:46:00,66.9,65.7,30.09,South,181,0.0,0.0,96,0.00,-RA,OVC,0.00,WeatherDisplay:10.37,2013-05-20 09:46:00,
2013-05-20 05:47:00,66.9,65.7,30.09,South,181,0.3,4.0,96,0.00,-RA,OVC,0.00,WeatherDisplay:10.37,2013-05-20 09:47:00,
2013-05-20 05:48:00,66.9,65.7,30.09,South,181,4.0,4.6,96,0.00,-RA,OVC,0.00,WeatherDisplay:10.37,2013-05-20 09:48:00,
2013-05-20 05:49:00,66.9,65.7,30.09,South,181,2.7,3.5,96,0.00,-RA,OVC,0.00,WeatherDisplay:10.37,2013-05-20 09:49:00,
2013-05-20 05:51:00,66.9,65.7,30.09,South,181,3.0,5.0,96,0.00,-RA,OVC,0.00,WeatherDisplay:10.37,2013-05-20 09:51:00,
2013-05-20 05:53:00,66.9,65.7,30.10,South,181,1.1,3.5,96,0.00,-RA,OVC,0.00,WeatherDisplay:10.37,2013-05-20 09:53:00,
2013-05-20 05:54:00,66.9,65.7,30.10,South,181,3.1,5.0,96,0.00,-RA,OVC,0.00,WeatherDisplay:10.37,2013-05-20 09:54:00,
2013-05-20 05:58:00,66.9,65.7,30.10,South,181,4.0,4.6,96,0.00,-RA,OVC,0.00,WeatherDisplay:10.37,2013-05-20 09:58:00,
2013-05-20 05:59:00,66.9,65.7,30.10,South,181,4.1,5.8,96,0.00,-RA,OVC,0.00,WeatherDisplay:10.37,2013-05-20 09:59:00,
2013-05-20 06:00:00,66.9,65.7,30.10,South,181,4.1,5.0,96,0.00,-RA,OVC,0.00,WeatherDisplay:10.37,2013-05-20 10:00:00,
2013-05-20 06:03:00,66.9,65.7,30.10,South,181,3.3,5.0,96,0.00,OVC,,0.00,WeatherDisplay:10.37,2013-05-20 10:03:00,
2013-05-20 06:04:00,66.9,65.7,30.11,South,181,2.2,4.6,96,0.00,OVC,,0.00,WeatherDisplay:10.37,2013-05-20 10:04:00,
2013-05-20 06:05:00,66.9,65.7,30.11,South,181,0.8,4.6,96,0.00,OVC,,0.00,WeatherDisplay:10.37,2013-05-20 10:05:00,
2013-05-20 06:06:00,66.9,65.7,30.11,South,181,1.1,3.5,96,0.00,OVC,,0.00,WeatherDisplay:10.37,2013-05-20 10:06:00,
2013-05-20 06:07:00,66.9,65.7,30.11,South,181,0.4,3.0,96,0.00,OVC,,0.00,WeatherDisplay:10.37,2013-05-20 10:07:00,
2013-05-20 06:12:00,66.9,65.7,30.11,South,181,2.3,3.5,96,0.00,OVC,,0.00,WeatherDisplay:10.37,2013-05-20 10:12:00,
2013-05-20 06:13:00,66.9,65.7,30.11,South,181,2.6,3.5,96,0.00,OVC,,0.00,WeatherDisplay:10.37,2013-05-20 10:13:00,
2013-05-20 06:15:00,66.9,65.7,30.11,South,181,0.3,2.3,96,0.00,OVC,,0.00,WeatherDisplay:10.37,2013-05-20 10:15:00,
2013-05-20 06:19:00,66.9,65.7,30.11,South,181,2.2,4.6,96,0.00,OVC,,0.00,WeatherDisplay:10.37,2013-05-20 10:19:00,
2013-05-20 06:20:00,66.9,65.7,30.11,South,181,1.6,3.5,96,0.00,OVC,,0.00,WeatherDisplay:10.37,2013-05-20 10:20:00,
2013-05-20 06:21:00,66.9,65.7,30.11,South,181,0.7,2.3,96,0.00,OVC,,0.00,WeatherDisplay:10.37,2013-05-20 10:21:00,
2013-05-20 06:22:00,66.9,65.7,30.11,South,181,1.3,3.5,96,0.00,OVC,,0.00,WeatherDisplay:10.37,2013-05-20 10:22:00,
2013-05-20 06:24:00,66.9,65.7,30.11,South,181,2.4,4.6,96,0.00,OVC,,0.00,WeatherDisplay:10.37,2013-05-20 10:24:00,
2013-05-20 06:25:00,66.9,65.7,30.11,South,181,0.0,3.5,96,0.00,OVC,,0.00,WeatherDisplay:10.37,2013-05-20 10:25:00,
2013-05-20 06:28:00,66.9,65.7,30.11,South,181,0.0,0.0,96,0.00,OVC,,0.00,WeatherDisplay:10.37,2013-05-20 10:28:00,
2013-05-20 06:29:00,66.9,65.7,30.11,South,181,0.0,0.0,96,0.00,OVC,,0.00,WeatherDisplay:10.37,2013-05-20 10:29:00,
2013-05-20 06:30:00,66.9,65.7,30.11,South,181,3.2,5.8,96,0.00,OVC,,0.00,WeatherDisplay:10.37,2013-05-20 10:30:00,
2013-05-20 06:32:00,66.9,65.7,30.11,South,181,2.8,4.0,96,0.00,OVC,,0.00,WeatherDisplay:10.37,2013-05-20 10:32:00,
2013-05-20 06:33:00,66.9,65.7,30.11,South,181,2.8,4.0,96,0.00,OVC,,0.00,WeatherDisplay:10.37,2013-05-20 10:33:00,
2013-05-20 06:35:00,66.9,65.7,30.11,South,181,2.4,3.5,96,0.00,OVC,,0.00,WeatherDisplay:10.37,2013-05-20 10:35:00,
2013-05-20 06:36:00,66.9,65.7,30.11,South,181,2.7,4.0,96,0.00,OVC,,0.00,WeatherDisplay:10.37,2013-05-20 10:36:00,
2013-05-20 06:37:00,66.9,65.7,30.11,South,181,2.6,4.6,96,0.00,OVC,,0.00,WeatherDisplay:10.37,2013-05-20 10:37:00,
2013-05-20 06:38:00,66.9,65.7,30.11,South,181,3.6,4.6,96,0.00,OVC,,0.00,WeatherDisplay:10.37,2013-05-20 10:38:00,
2013-05-20 06:40:00,66.9,65.7,30.11,South,181,3.7,4.6,96,0.00,OVC,,0.00,WeatherDisplay:10.37,2013-05-20 10:40:00,
2013-05-20 06:42:00,66.9,65.7,30.11,South,181,0.3,3.5,96,0.00,OVC,,0.00,WeatherDisplay:10.37,2013-05-20 10:42:00,
2013-05-20 06:43:00,66.9,65.7,30.11,South,181,0.0,0.0,96,0.00,OVC,,0.00,WeatherDisplay:10.37,2013-05-20 10:43:00,
2013-05-20 06:45:00,66.9,65.7,30.11,South,181,1.0,3.0,96,0.00,OVC,,0.00,WeatherDisplay:10.37,2013-05-20 10:45:00,
2013-05-20 06:47:00,66.9,65.7,30.11,South,181,2.7,4.6,96,0.00,OVC,,0.00,WeatherDisplay:10.37,2013-05-20 10:47:00,
2013-05-20 06:48:00,66.9,65.7,30.11,South,181,2.7,4.0,96,0.00,OVC,,0.00,WeatherDisplay:10.37,2013-05-20 10:48:00,
2013-05-20 06:49:00,66.9,65.7,30.11,South,181,3.1,4.0,96,0.00,OVC,,0.00,WeatherDisplay:10.37,2013-05-20 10:49:00,
2013-05-20 06:52:00,67.1,65.9,30.11,South,181,4.3,5.0,96,0.00,OVC,,0.00,WeatherDisplay:10.37,2013-05-20 10:52:00,
2013-05-20 06:54:00,67.1,65.9,30.11,South,181,2.3,3.5,96,0.00,OVC,,0.00,WeatherDisplay:10.37,2013-05-20 10:54:00,
2013-05-20 06:55:00,67.1,65.9,30.11,South,181,2.8,3.5,96,0.00,OVC,,0.00,WeatherDisplay:10.37,2013-05-20 10:55:00,
2013-05-20 06:58:00,67.1,65.9,30.11,South,181,0.0,1.0,96,0.00,OVC,,0.00,WeatherDisplay:10.37,2013-05-20 10:58:00,
2013-05-20 06:59:00,67.1,65.9,30.11,South,181,0.0,1.1,96,0.00,OVC,,0.00,WeatherDisplay:10.37,2013-05-20 10:59:00,
2013-05-20 07:00:00,67.1,65.9,30.11,South,181,0.0,0.0,96,0.00,OVC,,0.00,WeatherDisplay:10.37,2013-05-20 11:00:00,
2013-05-20 07:03:00,67.1,65.9,30.11,South,181,0.0,0.0,96,0.00,OVC,,0.00,WeatherDisplay:10.37,2013-05-20 11:03:00,
2013-05-20 07:04:00,67.1,65.9,30.12,South,181,0.0,0.0,96,0.00,OVC,,0.00,WeatherDisplay:10.37,2013-05-20 11:04:00,
2013-05-20 07:05:00,67.1,65.9,30.12,South,181,0.0,0.0,96,0.00,OVC,,0.00,WeatherDisplay:10.37,2013-05-20 11:05:00,
2013-05-20 07:08:00,67.1,65.9,30.12,South,181,0.0,0.0,96,0.00,OVC,,0.00,WeatherDisplay:10.37,2013-05-20 11:08:00,
2013-05-20 07:09:00,67.3,66.1,30.12,South,181,0.1,0.0,96,0.00,OVC,,0.00,WeatherDisplay:10.37,2013-05-20 11:09:00,
2013-05-20 07:10:00,67.3,66.1,30.12,South,181,0.0,1.1,96,0.00,OVC,,0.00,WeatherDisplay:10.37,2013-05-20 11:10:00,
2013-05-20 07:11:00,67.3,66.1,30.12,South,181,0.0,0.0,96,0.00,OVC,,0.00,WeatherDisplay:10.37,2013-05-20 11:11:00,
2013-05-20 07:15:00,67.3,66.1,30.12,South,181,0.0,0.0,96,0.00,OVC,,0.00,WeatherDisplay:10.37,2013-05-20 11:15:00,
2013-05-20 07:16:00,67.3,66.1,30.12,South,181,0.0,0.0,96,0.00,OVC,,0.00,WeatherDisplay:10.37,2013-05-20 11:16:00,
2013-05-20 07:17:00,67.3,66.1,30.12,South,181,0.0,0.0,96,0.00,OVC,,0.00,WeatherDisplay:10.37,2013-05-20 11:17:00,
2013-05-20 07:19:00,67.3,66.1,30.12,South,181,0.0,0.0,96,0.00,OVC,,0.00,WeatherDisplay:10.37,2013-05-20 11:19:00,
2013-05-20 07:21:00,67.3,66.1,30.12,South,181,1.7,6.0,96,0.00,OVC,,0.00,WeatherDisplay:10.37,2013-05-20 11:21:00,
2013-05-20 07:22:00,67.3,66.1,30.12,South,181,3.2,5.8,96,0.00,OVC,,0.00,WeatherDisplay:10.37,2013-05-20 11:22:00,
2013-05-20 07:23:00,67.3,66.1,30.12,South,181,4.9,5.8,96,0.00,OVC,,0.00,WeatherDisplay:10.37,2013-05-20 11:23:00,
2013-05-20 07:24:00,67.4,66.2,30.12,South,181,0.5,3.5,96,0.00,OVC,,0.00,WeatherDisplay:10.37,2013-05-20 11:24:00,
2013-05-20 07:27:00,67.4,66.2,30.12,South,181,4.0,5.0,96,0.00,OVC,,0.00,WeatherDisplay:10.37,2013-05-20 11:27:00,
2013-05-20 07:28:00,67.4,65.9,30.12,South,181,5.1,7.0,95,0.00,OVC,,0.00,WeatherDisplay:10.37,2013-05-20 11:28:00,
2013-05-20 07:30:00,67.4,65.9,30.12,South,181,6.0,8.0,95,0.00,OVC,OVC,0.00,WeatherDisplay:10.37,2013-05-20 11:30:00,
2013-05-20 07:33:00,67.4,65.9,30.12,South,181,2.3,4.0,95,0.00,OVC,,0.00,WeatherDisplay:10.37,2013-05-20 11:33:00,
2013-05-20 07:35:00,67.6,66.1,30.13,South,181,2.2,3.5,95,0.00,OVC,,0.00,WeatherDisplay:10.37,2013-05-20 11:35:00,
2013-05-20 07:36:00,67.4,65.9,30.13,South,181,3.8,4.6,95,0.00,OVC,,0.00,WeatherDisplay:10.37,2013-05-20 11:36:00,
2013-05-20 07:38:00,67.4,65.9,30.13,South,181,3.4,3.5,95,0.00,OVC,,0.00,WeatherDisplay:10.37,2013-05-20 11:38:00,
2013-05-20 07:39:00,67.4,65.9,30.13,South,181,2.7,4.6,95,0.00,OVC,,0.00,WeatherDisplay:10.37,2013-05-20 11:39:00,
2013-05-20 07:42:00,67.4,65.9,30.13,South,181,2.2,3.5,95,0.00,OVC,,0.00,WeatherDisplay:10.37,2013-05-20 11:42:00,
2013-05-20 07:43:00,67.4,65.9,30.13,South,181,1.9,3.5,95,0.00,OVC,,0.00,WeatherDisplay:10.37,2013-05-20 11:43:00,
2013-05-20 07:44:00,67.4,65.9,30.13,South,181,1.0,3.5,95,0.00,OVC,,0.00,WeatherDisplay:10.37,2013-05-20 11:44:00,
2013-05-20 07:46:00,67.6,66.1,30.13,South,181,0.0,0.0,95,0.00,OVC,,0.00,WeatherDisplay:10.37,2013-05-20 11:46:00,
2013-05-20 07:48:00,67.6,66.1,30.13,South,181,1.0,3.5,95,0.00,OVC,,0.00,WeatherDisplay:10.37,2013-05-20 11:48:00,
2013-05-20 07:49:00,67.8,66.3,30.14,South,181,0.0,3.5,95,0.00,OVC,,0.00,WeatherDisplay:10.37,2013-05-20 11:49:00,
2013-05-20 07:50:00,67.8,66.3,30.14,South,181,0.0,0.0,95,0.00,OVC,,0.00,WeatherDisplay:10.37,2013-05-20 11:50:00,
2013-05-20 07:53:00,67.8,66.3,30.14,South,181,2.1,4.0,95,0.00,OVC,,0.00,WeatherDisplay:10.37,2013-05-20 11:53:00,
2013-05-20 07:54:00,67.8,66.3,30.14,South,181,3.2,5.0,95,0.00,OVC,,0.00,WeatherDisplay:10.37,2013-05-20 11:54:00,
2013-05-20 07:56:00,67.8,66.3,30.14,South,181,2.8,3.5,95,0.00,OVC,,0.00,WeatherDisplay:10.37,2013-05-20 11:56:00,
2013-05-20 07:57:00,67.6,66.1,30.14,South,181,4.3,4.6,95,0.00,OVC,,0.00,WeatherDisplay:10.37,2013-05-20 11:57:00,
2013-05-20 07:59:00,67.6,66.1,30.14,South,181,3.0,3.5,95,0.00,OVC,,0.00,WeatherDisplay:10.37,2013-05-20 11:59:00,
2013-05-20 08:00:00,67.6,66.1,30.14,South,181,3.5,4.6,95,0.00,OVC,,0.00,WeatherDisplay:10.37,2013-05-20 12:00:00,
2013-05-20 08:03:00,67.8,66.3,30.14,South,181,2.5,5.8,95,0.00,-RA,OVC,0.00,WeatherDisplay:10.37,2013-05-20 12:03:00,
2013-05-20 08:04:00,67.8,66.3,30.14,South,181,2.0,4.0,95,0.00,-RA,OVC,0.00,WeatherDisplay:10.37,2013-05-20 12:04:00,
2013-05-20 08:06:00,67.8,66.3,30.14,South,181,4.7,5.8,95,0.00,-RA,OVC,0.00,WeatherDisplay:10.37,2013-05-20 12:06:00,
2013-05-20 08:07:00,67.8,66.3,30.14,South,181,3.9,4.6,95,0.00,-RA,OVC,0.00,WeatherDisplay:10.37,2013-05-20 12:07:00,
2013-05-20 08:09:00,67.8,66.3,30.14,South,181,4.8,7.0,95,0.00,-RA,OVC,0.00,WeatherDisplay:10.37,2013-05-20 12:09:00,
2013-05-20 08:12:00,67.8,66.0,30.14,South,181,7.0,9.2,94,0.00,-RA,OVC,0.00,WeatherDisplay:10.37,2013-05-20 12:12:00,
2013-05-20 08:13:00,67.8,66.0,30.14,South,181,7.1,10.4,94,0.00,-RA,OVC,0.00,WeatherDisplay:10.37,2013-05-20 12:13:00,
2013-05-20 08:15:00,67.8,66.0,30.14,South,181,6.0,10.0,94,0.00,-RA,OVC,0.00,WeatherDisplay:10.37,2013-05-20 12:15:00,
2013-05-20 08:18:00,67.8,66.0,30.14,South,181,5.6,6.0,94,0.00,-RA,OVC,0.00,WeatherDisplay:10.37,2013-05-20 12:18:00,
2013-05-20 08:19:00,67.8,66.0,30.14,South,181,5.4,5.8,94,0.00,-RA,OVC,0.00,WeatherDisplay:10.37,2013-05-20 12:19:00,
2013-05-20 08:20:00,67.8,66.0,30.14,South,181,3.0,5.8,94,0.00,-RA,OVC,0.00,WeatherDisplay:10.37,2013-05-20 12:20:00,
2013-05-20 08:24:00,67.8,66.0,30.14,South,181,4.2,6.9,94,0.00,-RA,OVC,0.00,WeatherDisplay:10.37,2013-05-20 12:24:00,
2013-05-20 08:25:00,67.8,66.0,30.14,South,181,5.2,5.8,94,0.00,-RA,OVC,0.00,WeatherDisplay:10.37,2013-05-20 12:25:00,
2013-05-20 08:26:00,67.8,66.0,30.14,South,181,4.5,5.8,94,0.00,-RA,OVC,0.00,WeatherDisplay:10.37,2013-05-20 12:26:00,
2013-05-20 08:27:00,67.8,66.0,30.14,South,181,4.5,6.0,94,0.00,-RA,OVC,0.00,WeatherDisplay:10.37,2013-05-20 12:27:00,
2013-05-20 08:29:00,67.8,66.0,30.14,South,181,4.2,5.8,94,0.00,-RA,OVC,0.00,WeatherDisplay:10.37,2013-05-20 12:29:00,
2013-05-20 08:31:00,67.8,66.0,30.14,South,181,4.2,5.8,94,0.00,-RA,OVC,0.00,WeatherDisplay:10.37,2013-05-20 12:31:00,
2013-05-20 08:33:00,67.8,66.0,30.14,South,181,4.3,6.0,94,0.00,-RA,OVC,0.00,WeatherDisplay:10.37,2013-05-20 12:33:00,
2013-05-20 08:34:00,67.8,66.0,30.14,South,181,4.1,5.8,94,0.00,-RA,OVC,0.00,WeatherDisplay:10.37,2013-05-20 12:34:00,
2013-05-20 08:36:00,67.8,66.0,30.15,South,181,3.0,3.5,94,0.00,-RA,OVC,0.00,WeatherDisplay:10.37,2013-05-20 12:36:00,
2013-05-20 08:38:00,67.9,66.1,30.15,South,181,4.3,4.6,94,0.00,-RA,OVC,0.00,WeatherDisplay:10.37,2013-05-20 12:38:00,
2013-05-20 08:40:00,67.9,66.1,30.15,South,181,3.9,4.6,94,0.00,-RA,OVC,0.00,WeatherDisplay:10.37,2013-05-20 12:40:00,
2013-05-20 08:41:00,67.9,66.1,30.15,South,181,4.1,5.0,94,0.00,-RA,OVC,0.00,WeatherDisplay:10.37,2013-05-20 12:41:00,
2013-05-20 08:42:00,67.8,66.0,30.15,South,181,3.8,5.8,94,0.00,-RA,OVC,0.00,WeatherDisplay:10.37,2013-05-20 12:42:00,
2013-05-20 08:44:00,67.8,66.0,30.15,South,181,3.9,4.6,94,0.00,-RA,OVC,0.00,WeatherDisplay:10.37,2013-05-20 12:44:00,
2013-05-20 08:46:00,67.8,66.0,30.15,South,181,3.4,3.5,94,0.00,-RA,OVC,0.00,WeatherDisplay:10.37,2013-05-20 12:46:00,
2013-05-20 08:47:00,67.9,66.1,30.15,South,181,2.9,4.6,94,0.00,-RA,OVC,0.00,WeatherDisplay:10.37,2013-05-20 12:47:00,
2013-05-20 08:49:00,67.9,66.1,30.15,South,181,4.6,5.8,94,0.00,-RA,OVC,0.00,WeatherDisplay:10.37,2013-05-20 12:49:00,
2013-05-20 08:50:00,67.9,66.1,30.15,South,181,3.9,5.8,94,0.00,-RA,OVC,0.00,WeatherDisplay:10.37,2013-05-20 12:50:00,
2013-05-20 08:52:00,67.9,66.1,30.15,South,181,3.3,3.5,94,0.00,-RA,OVC,0.00,WeatherDisplay:10.37,2013-05-20 12:52:00,
2013-05-20 08:54:00,67.9,66.1,30.15,South,181,3.4,3.5,94,0.00,-RA,OVC,0.00,WeatherDisplay:10.37,2013-05-20 12:54:00,
2013-05-20 08:55:00,67.9,66.1,30.15,South,181,3.7,4.6,94,0.00,-RA,OVC,0.00,WeatherDisplay:10.37,2013-05-20 12:55:00,
2013-05-20 08:57:00,67.9,66.1,30.15,South,181,2.9,3.5,94,0.00,-RA,OVC,0.00,WeatherDisplay:10.37,2013-05-20 12:57:00,
2013-05-20 09:00:00,68.1,66.3,30.15,South,181,3.1,5.0,94,0.00,-RA,OVC,0.00,WeatherDisplay:10.37,2013-05-20 13:00:00,
2013-05-20 09:01:00,68.1,66.3,30.15,South,181,3.6,4.6,94,0.00,OVC,,0.00,WeatherDisplay:10.37,2013-05-20 13:01:00,
2013-05-20 09:02:00,68.1,66.3,30.15,South,181,2.6,3.5,94,0.00,OVC,,0.00,WeatherDisplay:10.37,2013-05-20 13:02:00,
2013-05-20 09:05:00,68.1,66.3,30.15,South,181,0.3,2.3,94,0.00,OVC,,0.00,WeatherDisplay:10.37,2013-05-20 13:05:00,
2013-05-20 09:06:00,68.3,66.5,30.15,South,181,0.0,0.0,94,0.00,OVC,,0.00,WeatherDisplay:10.37,2013-05-20 13:06:00,
2013-05-20 09:08:00,68.3,66.5,30.15,South,181,3.7,5.0,94,0.00,OVC,,0.00,WeatherDisplay:10.37,2013-05-20 13:08:00,
2013-05-20 09:10:00,68.3,66.5,30.15,South,181,2.2,3.5,94,0.00,OVC,,0.00,WeatherDisplay:10.37,2013-05-20 13:10:00,
2013-05-20 09:11:00,68.3,66.5,30.15,South,181,2.5,3.5,94,0.00,OVC,,0.00,WeatherDisplay:10.37,2013-05-20 13:11:00,
2013-05-20 09:13:00,68.3,66.5,30.15,South,181,0.0,1.1,94,0.00,OVC,,0.00,WeatherDisplay:10.37,2013-05-20 13:13:00,
2013-05-20 09:15:00,68.4,66.6,30.15,South,181,1.0,5.0,94,0.00,OVC,OVC,0.00,WeatherDisplay:10.37,2013-05-20 13:15:00,
2013-05-20 09:16:00,68.4,66.3,30.15,South,181,4.1,5.0,93,0.00,OVC,,0.00,WeatherDisplay:10.37,2013-05-20 13:16:00,
2013-05-20 09:18:00,68.4,66.3,30.15,South,181,2.8,4.6,93,0.00,OVC,,0.00,WeatherDisplay:10.37,2013-05-20 13:18:00,
2013-05-20 09:19:00,68.4,66.3,30.15,South,181,2.2,3.5,93,0.00,OVC,,0.00,WeatherDisplay:10.37,2013-05-20 13:19:00,
2013-05-20 09:20:00,68.4,66.3,30.15,South,181,0.0,1.1,93,0.00,OVC,,0.00,WeatherDisplay:10.37,2013-05-20 13:20:00,
2013-05-20 09:23:00,68.6,66.5,30.15,South,181,4.0,4.6,93,0.00,OVC,,0.00,WeatherDisplay:10.37,2013-05-20 13:23:00,
2013-05-20 09:24:00,68.6,66.5,30.15,South,181,4.2,6.0,93,0.00,OVC,,0.00,WeatherDisplay:10.37,2013-05-20 13:24:00,
2013-05-20 09:25:00,68.6,66.2,30.15,South,181,4.3,5.8,92,0.00,OVC,,0.00,WeatherDisplay:10.37,2013-05-20 13:25:00,
2013-05-20 09:29:00,68.8,66.4,30.15,South,181,3.1,3.5,92,0.00,OVC,,0.00,WeatherDisplay:10.37,2013-05-20 13:29:00,
2013-05-20 09:30:00,68.8,66.3,30.15,South,181,3.0,6.0,92,0.00,OVC,OVC,0.00,WeatherDisplay:10.37,2013-05-20 13:30:00,
2013-05-20 09:31:00,68.8,66.4,30.15,South,181,4.0,5.0,92,0.00,OVC,,0.00,WeatherDisplay:10.37,2013-05-20 13:31:00,
2013-05-20 09:32:00,68.8,66.4,30.15,South,181,4.5,5.0,92,0.00,OVC,,0.00,WeatherDisplay:10.37,2013-05-20 13:32:00,
2013-05-20 09:35:00,68.9,66.5,30.15,South,181,5.4,5.8,92,0.00,OVC,,0.00,WeatherDisplay:10.37,2013-05-20 13:35:00,
2013-05-20 09:36:00,68.9,66.5,30.15,South,181,4.7,6.9,92,0.00,OVC,,0.00,WeatherDisplay:10.37,2013-05-20 13:36:00,
2013-05-20 09:37:00,69.1,66.7,30.15,South,181,4.0,5.0,92,0.00,OVC,,0.00,WeatherDisplay:10.37,2013-05-20 13:37:00,
2013-05-20 09:38:00,69.1,66.7,30.15,South,181,4.4,5.8,92,0.00,OVC,,0.00,WeatherDisplay:10.37,2013-05-20 13:38:00,
2013-05-20 09:40:00,69.3,66.6,30.15,South,181,5.1,5.8,91,0.00,OVC,,0.00,WeatherDisplay:10.37,2013-05-20 13:40:00,
2013-05-20 09:41:00,69.3,66.6,30.15,South,181,5.6,6.9,91,0.00,OVC,,0.00,WeatherDisplay:10.37,2013-05-20 13:41:00,
2013-05-20 09:43:00,69.3,66.2,30.15,South,181,7.5,10.4,90,0.00,OVC,,0.00,WeatherDisplay:10.37,2013-05-20 13:43:00,
2013-05-20 09:44:00,69.3,66.2,30.15,South,181,6.1,10.4,90,0.00,OVC,,0.00,WeatherDisplay:10.37,2013-05-20 13:44:00,
2013-05-20 09:45:00,69.4,66.3,30.15,South,181,5.6,9.2,90,0.00,OVC,,0.00,WeatherDisplay:10.37,2013-05-20 13:45:00,
2013-05-20 09:46:00,69.6,66.9,30.15,South,181,4.6,7.0,91,0.00,OVC,,0.00,WeatherDisplay:10.37,2013-05-20 13:46:00,
2013-05-20 09:48:00,69.8,66.7,30.15,South,181,4.7,8.1,90,0.00,OVC,,0.00,WeatherDisplay:10.37,2013-05-20 13:48:00,
2013-05-20 09:50:00,69.8,66.7,30.14,South,181,8.3,10.4,90,0.00,OVC,,0.00,WeatherDisplay:10.37,2013-05-20 13:50:00,
2013-05-20 09:52:00,69.6,66.2,30.14,South,181,5.8,10.4,89,0.00,OVC,,0.00,WeatherDisplay:10.37,2013-05-20 13:52:00,
2013-05-20 09:53:00,69.6,66.2,30.15,South,181,4.8,7.0,89,0.00,OVC,,0.00,WeatherDisplay:10.37,2013-05-20 13:53:00,
2013-05-20 09:55:00,69.8,66.4,30.14,South,181,9.2,11.5,89,0.00,OVC,,0.00,WeatherDisplay:10.37,2013-05-20 13:55:00,
2013-05-20 09:56:00,69.8,66.1,30.15,South,181,8.2,11.5,88,0.00,OVC,,0.00,WeatherDisplay:10.37,2013-05-20 13:56:00,
2013-05-20 09:57:00,69.6,65.9,30.15,South,181,7.7,10.4,88,0.00,OVC,,0.00,WeatherDisplay:10.37,2013-05-20 13:57:00,
2013-05-20 09:58:00,69.8,66.1,30.15,SSW,207,8.7,10.4,88,0.00,OVC,,0.00,WeatherDisplay:10.37,2013-05-20 13:58:00,
2013-05-20 10:00:00,69.8,66.1,30.15,SSW,207,6.0,6.9,88,0.00,OVC,,0.00,WeatherDisplay:10.37,2013-05-20 14:00:00,
2013-05-20 10:03:00,69.8,66.1,30.15,SSW,207,4.8,6.9,88,0.00,-RA,OVC,0.00,WeatherDisplay:10.37,2013-05-20 14:03:00,
2013-05-20 10:04:00,69.9,66.2,30.15,SSW,207,4.2,4.6,88,0.00,-RA,OVC,0.00,WeatherDisplay:10.37,2013-05-20 14:04:00,
2013-05-20 10:06:00,69.9,66.2,30.14,SSW,207,6.7,8.1,88,0.00,-RA,OVC,0.00,WeatherDisplay:10.37,2013-05-20 14:06:00,
2013-05-20 10:08:00,69.9,66.2,30.14,SSW,207,4.0,6.0,88,0.00,-RA,OVC,0.00,WeatherDisplay:10.37,2013-05-20 14:08:00,
2013-05-20 10:09:00,69.9,66.2,30.14,SSW,207,4.2,5.8,88,0.00,-RA,OVC,0.00,WeatherDisplay:10.37,2013-05-20 14:09:00,
2013-05-20 10:12:00,69.9,66.2,30.14,SSW,207,5.0,5.8,88,0.00,-RA,OVC,0.00,WeatherDisplay:10.37,2013-05-20 14:12:00,
2013-05-20 10:14:00,69.9,65.9,30.14,SSW,207,3.7,4.6,87,0.00,-RA,OVC,0.00,WeatherDisplay:10.37,2013-05-20 14:14:00,
2013-05-20 10:16:00,69.9,65.9,30.14,SSW,207,3.9,6.0,87,0.00,-RA,OVC,0.00,WeatherDisplay:10.37,2013-05-20 14:16:00,
2013-05-20 10:17:00,70.1,66.0,30.14,SSW,207,4.1,5.8,87,0.00,-RA,OVC,0.00,WeatherDisplay:10.37,2013-05-20 14:17:00,
2013-05-20 10:19:00,70.1,66.0,30.14,SSW,207,3.3,4.0,87,0.00,-RA,OVC,0.00,WeatherDisplay:10.37,2013-05-20 14:19:00,
2013-05-20 10:20:00,70.3,66.2,30.15,SSW,207,3.1,3.5,87,0.00,-RA,OVC,0.00,WeatherDisplay:10.37,2013-05-20 14:20:00,
2013-05-20 10:22:00,70.3,65.9,30.15,SSW,207,5.6,6.9,86,0.00,-RA,OVC,0.00,WeatherDisplay:10.37,2013-05-20 14:22:00,
2013-05-20 10:24:00,70.3,65.9,30.15,SSW,207,4.7,6.0,86,0.00,-RA,OVC,0.00,WeatherDisplay:10.37,2013-05-20 14:24:00,
2013-05-20 10:26:00,70.3,65.9,30.15,SSW,207,6.0,6.9,86,0.00,-RA,OVC,0.00,WeatherDisplay:10.37,2013-05-20 14:26:00,
2013-05-20 10:28:00,70.3,66.2,30.15,SSW,207,6.7,9.2,87,0.00,-RA,OVC,0.00,WeatherDisplay:10.37,2013-05-20 14:28:00,
2013-05-20 10:30:00,70.3,65.9,30.15,SSW,207,5.4,5.8,86,0.00,-RA,OVC,0.00,WeatherDisplay:10.37,2013-05-20 14:30:00,
2013-05-20 10:31:00,70.3,65.9,30.15,SSW,207,4.1,4.6,86,0.00,-RA,OVC,0.00,WeatherDisplay:10.37,2013-05-20 14:31:00,
2013-05-20 10:33:00,70.6,66.5,30.15,SSW,207,5.8,6.9,87,0.00,-RA,OVC,0.00,WeatherDisplay:10.37,2013-05-20 14:33:00,
2013-05-20 10:35:00,70.6,66.2,30.15,SSW,207,4.3,5.8,86,0.00,-RA,OVC,0.00,WeatherDisplay:10.37,2013-05-20 14:35:00,
2013-05-20 10:37:00,70.8,66.4,30.15,SSW,207,3.6,4.6,86,0.00,-RA,OVC,0.00,WeatherDisplay:10.37,2013-05-20 14:37:00,
2013-05-20 10:38:00,70.8,66.1,30.15,SSW,207,4.1,5.8,85,0.00,-RA,OVC,0.00,WeatherDisplay:10.37,2013-05-20 14:38:00,
2013-05-20 10:39:00,70.8,66.1,30.15,SSW,207,3.6,5.0,85,0.00,-RA,OVC,0.00,WeatherDisplay:10.37,2013-05-20 14:39:00,
2013-05-20 10:41:00,70.9,66.2,30.15,SSW,207,5.1,5.8,85,0.00,-RA,OVC,0.00,WeatherDisplay:10.37,2013-05-20 14:41:00,
2013-05-20 10:44:00,71.1,66.4,30.15,SSW,207,4.8,5.8,85,0.00,-RA,OVC,0.00,WeatherDisplay:10.37,2013-05-20 14:44:00,
2013-05-20 10:45:00,71.1,66.0,30.15,SSW,207,5.0,8.0,84,0.00,-RA,OVC,0.00,WeatherDisplay:10.37,2013-05-20 14:45:00,
2013-05-20 10:46:00,71.1,66.0,30.15,SSW,207,5.1,5.8,84,0.00,-RA,OVC,0.00,WeatherDisplay:10.37,2013-05-20 14:46:00,
2013-05-20 10:49:00,71.5,66.8,30.15,SSW,207,2.8,3.5,85,0.00,-RA,OVC,0.00,WeatherDisplay:10.37,2013-05-20 14:49:00,
2013-05-20 10:50:00,71.5,66.4,30.15,SSW,207,2.6,4.0,84,0.00,-RA,OVC,0.00,WeatherDisplay:10.37,2013-05-20 14:50:00,
2013-05-20 10:53:00,71.6,66.5,30.14,SSW,207,4.7,5.8,84,0.00,-RA,OVC,0.00,WeatherDisplay:10.37,2013-05-20 14:53:00,
2013-05-20 10:55:00,71.6,66.2,30.14,SSW,207,3.8,4.6,83,0.00,-RA,OVC,0.00,WeatherDisplay:10.37,2013-05-20 14:55:00,
2013-05-20 10:56:00,71.6,66.2,30.14,SSW,207,4.2,4.6,83,0.00,-RA,OVC,0.00,WeatherDisplay:10.37,2013-05-20 14:56:00,
2013-05-20 10:58:00,71.8,66.4,30.14,SSW,207,2.7,6.0,83,0.00,-RA,OVC,0.00,WeatherDisplay:10.37,2013-05-20 14:58:00,
2013-05-20 11:10:00,72.7,66.2,30.14,SW,219,7.3,12.0,80,0.00,-RA,OVC,0.00,WeatherDisplay:10.37,2013-05-20 15:10:00,
2013-05-20 11:11:00,72.7,65.8,30.14,SW,219,6.0,8.1,79,0.00,-RA,OVC,0.00,WeatherDisplay:10.37,2013-05-20 15:11:00,
2013-05-20 11:12:00,72.7,66.2,30.14,SW,219,3.0,4.6,80,0.00,-RA,OVC,0.00,WeatherDisplay:10.37,2013-05-20 15:12:00,
2013-05-20 11:17:00,73.0,65.7,30.14,WSW,242,2.2,4.6,78,0.00,-RA,OVC,0.00,WeatherDisplay:10.37,2013-05-20 15:17:00,
2013-05-20 11:18:00,73.0,65.7,30.14,WSW,242,2.9,4.6,78,0.00,-RA,OVC,0.00,WeatherDisplay:10.37,2013-05-20 15:18:00,
2013-05-20 11:19:00,73.2,65.9,30.14,WSW,242,4.2,5.8,78,0.00,-RA,OVC,0.00,WeatherDisplay:10.37,2013-05-20 15:19:00,
2013-05-20 11:23:00,73.2,65.6,30.14,WSW,239,6.7,12.0,77,0.00,-RA,OVC,0.00,WeatherDisplay:10.37,2013-05-20 15:23:00,
2013-05-20 11:24:00,73.2,65.9,30.14,WSW,238,8.4,11.5,78,0.00,-RA,OVC,0.00,WeatherDisplay:10.37,2013-05-20 15:24:00,
2013-05-20 11:27:00,73.5,66.2,30.14,WSW,238,4.4,4.6,78,0.00,-RA,OVC,0.00,WeatherDisplay:10.37,2013-05-20 15:27:00,
2013-05-20 11:28:00,73.7,66.0,30.14,WSW,247,6.2,11.5,77,0.00,-RA,OVC,0.00,WeatherDisplay:10.37,2013-05-20 15:28:00,
2013-05-20 11:29:00,73.7,66.0,30.14,WSW,247,8.1,11.5,77,0.00,-RA,OVC,0.00,WeatherDisplay:10.37,2013-05-20 15:29:00,
2013-05-20 11:32:00,73.7,66.8,30.14,WSW,240,8.5,9.2,79,0.00,-RA,OVC,0.00,WeatherDisplay:10.37,2013-05-20 15:32:00,
2013-05-20 11:33:00,73.5,66.2,30.14,WSW,238,7.3,10.4,78,0.00,-RA,OVC,0.00,WeatherDisplay:10.37,2013-05-20 15:33:00,
2013-05-20 11:35:00,73.3,66.0,30.14,SW,231,9.5,10.4,78,0.00,-RA,OVC,0.00,WeatherDisplay:10.37,2013-05-20 15:35:00,
2013-05-20 11:36:00,73.2,65.9,30.14,SW,229,9.0,10.4,78,0.00,-RA,OVC,0.00,WeatherDisplay:10.37,2013-05-20 15:36:00,
2013-05-20 11:37:00,73.2,66.3,30.14,SW,229,5.6,9.2,79,0.00,-RA,OVC,0.00,WeatherDisplay:10.37,2013-05-20 15:37:00,
2013-05-20 11:39:00,73.3,66.4,30.14,SW,229,3.4,5.8,79,0.00,-RA,OVC,0.00,WeatherDisplay:10.37,2013-05-20 15:39:00,
2013-05-20 11:41:00,73.5,66.2,30.14,SW,229,3.4,5.8,78,0.00,-RA,OVC,0.00,WeatherDisplay:10.37,2013-05-20 15:41:00,
2013-05-20 11:42:00,73.5,66.2,30.14,SW,229,2.3,3.5,78,0.00,-RA,OVC,0.00,WeatherDisplay:10.37,2013-05-20 15:42:00,
2013-05-20 11:43:00,73.5,66.6,30.14,SW,229,3.1,4.0,79,0.00,-RA,OVC,0.00,WeatherDisplay:10.37,2013-05-20 15:43:00,
2013-05-20 11:44:00,73.7,66.8,30.14,SW,229,4.7,6.0,79,0.00,-RA,OVC,0.00,WeatherDisplay:10.37,2013-05-20 15:44:00,
2013-05-20 11:47:00,73.7,66.4,30.14,SW,232,6.3,10.4,78,0.00,-RA,OVC,0.00,WeatherDisplay:10.37,2013-05-20 15:47:00,
2013-05-20 11:48:00,73.7,66.4,30.14,WSW,257,7.8,11.0,78,0.00,-RA,OVC,0.00,WeatherDisplay:10.37,2013-05-20 15:48:00,
2013-05-20 11:49:00,73.5,66.2,30.14,WSW,257,9.8,12.7,78,0.00,-RA,OVC,0.00,WeatherDisplay:10.37,2013-05-20 15:49:00,
2013-05-20 11:50:00,73.5,66.2,30.14,West,263,9.1,11.5,78,0.00,-RA,OVC,0.00,WeatherDisplay:10.37,2013-05-20 15:50:00,
2013-05-20 11:54:00,73.2,65.9,30.14,West,263,8.1,10.4,78,0.00,-RA,OVC,0.00,WeatherDisplay:10.37,2013-05-20 15:54:00,
2013-05-20 11:55:00,73.2,66.3,30.14,West,263,5.3,6.9,79,0.00,-RA,OVC,0.00,WeatherDisplay:10.37,2013-05-20 15:55:00,
2013-05-20 11:56:00,73.0,66.5,30.14,West,263,5.3,6.9,80,0.00,-RA,OVC,0.00,WeatherDisplay:10.37,2013-05-20 15:56:00,
2013-05-20 11:59:00,72.8,65.5,30.14,West,263,6.6,9.2,78,0.00,-RA,OVC,0.00,WeatherDisplay:10.37,2013-05-20 15:59:00,
2013-05-20 12:00:00,73.0,66.1,30.14,West,263,7.0,13.0,79,0.00,-RA,OVC,0.00,WeatherDisplay:10.37,2013-05-20 16:00:00,
2013-05-20 12:01:00,72.8,65.2,30.14,West,263,6.0,7.0,77,0.00,BKN,OVC,0.00,WeatherDisplay:10.37,2013-05-20 16:01:00,
2013-05-20 12:04:00,73.0,65.4,30.14,West,263,6.2,8.1,77,0.00,BKN,OVC,0.00,WeatherDisplay:10.37,2013-05-20 16:04:00,
2013-05-20 12:05:00,73.0,65.7,30.14,West,263,5.0,6.9,78,0.00,BKN,OVC,0.00,WeatherDisplay:10.37,2013-05-20 16:05:00,
2013-05-20 12:07:00,73.0,65.7,30.14,West,263,4.8,5.8,78,0.00,BKN,OVC,0.00,WeatherDisplay:10.37,2013-05-20 16:07:00,
2013-05-20 12:09:00,73.2,66.3,30.14,West,263,4.1,4.6,79,0.00,BKN,OVC,0.00,WeatherDisplay:10.37,2013-05-20 16:09:00,
2013-05-20 12:10:00,73.3,66.0,30.14,West,263,5.2,5.8,78,0.00,BKN,OVC,0.00,WeatherDisplay:10.37,2013-05-20 16:10:00,
2013-05-20 12:12:00,73.3,66.0,30.14,West,263,4.6,6.0,78,0.00,BKN,OVC,0.00,WeatherDisplay:10.37,2013-05-20 16:12:00,
2013-05-20 12:14:00,73.3,65.7,30.14,West,263,8.7,11.5,77,0.00,BKN,OVC,0.00,WeatherDisplay:10.37,2013-05-20 16:14:00,
2013-05-20 12:15:00,73.3,65.7,30.14,West,263,8.0,12.0,77,0.00,BKN,OVC,0.00,WeatherDisplay:10.37,2013-05-20 16:15:00,
2013-05-20 12:16:00,73.3,65.3,30.14,West,263,10.1,11.5,76,0.00,BKN,OVC,0.00,WeatherDisplay:10.37,2013-05-20 16:16:00,
2013-05-20 12:20:00,73.5,65.5,30.14,West,263,8.5,10.4,76,0.00,BKN,OVC,0.00,WeatherDisplay:10.37,2013-05-20 16:20:00,
2013-05-20 12:21:00,73.7,65.7,30.14,West,263,8.4,11.5,76,0.00,BKN,OVC,0.00,WeatherDisplay:10.37,2013-05-20 16:21:00,
2013-05-20 12:22:00,73.7,65.7,30.14,West,263,5.9,8.1,76,0.00,BKN,OVC,0.00,WeatherDisplay:10.37,2013-05-20 16:22:00,
2013-05-20 12:23:00,73.7,65.7,30.14,West,263,5.7,9.0,76,0.00,BKN,OVC,0.00,WeatherDisplay:10.37,2013-05-20 16:23:00,
2013-05-20 12:26:00,74.0,66.3,30.13,SW,234,10.9,13.8,77,0.00,BKN,OVC,0.00,WeatherDisplay:10.37,2013-05-20 16:26:00,
2013-05-20 12:27:00,74.0,66.0,30.13,SW,231,9.7,13.8,76,0.00,BKN,OVC,0.00,WeatherDisplay:10.37,2013-05-20 16:27:00,
2013-05-20 12:28:00,74.0,66.0,30.13,SW,233,9.7,12.7,76,0.00,BKN,OVC,0.00,WeatherDisplay:10.37,2013-05-20 16:28:00,
2013-05-20 12:29:00,74.2,65.8,30.13,SW,229,13.0,15.0,75,0.00,BKN,OVC,0.00,WeatherDisplay:10.37,2013-05-20 16:29:00,
2013-05-20 12:30:00,74.2,66.1,30.13,WSW,242,13.0,16.0,76,0.00,BKN,OVC,0.00,WeatherDisplay:10.37,2013-05-20 16:30:00,
2013-05-20 12:32:00,74.4,66.3,30.13,West,271,11.6,13.8,76,0.00,BKN,OVC,0.00,WeatherDisplay:10.37,2013-05-20 16:32:00,
2013-05-20 12:35:00,74.7,65.9,30.13,WSW,246,12.1,13.8,74,0.00,BKN,OVC,0.00,WeatherDisplay:10.37,2013-05-20 16:35:00,
2013-05-20 12:36:00,74.7,65.9,30.13,WSW,244,11.1,13.8,74,0.00,BKN,OVC,0.00,WeatherDisplay:10.37,2013-05-20 16:36:00,
2013-05-20 12:37:00,74.7,65.5,30.13,WSW,244,9.8,12.7,73,0.00,BKN,OVC,0.00,WeatherDisplay:10.37,2013-05-20 16:37:00,
2013-05-20 12:38:00,74.9,65.7,30.13,WSW,255,9.1,11.5,73,0.00,BKN,OVC,0.00,WeatherDisplay:10.37,2013-05-20 16:38:00,
2013-05-20 12:41:00,74.6,64.6,30.13,West,279,12.2,16.1,71,0.00,BKN,OVC,0.00,WeatherDisplay:10.37,2013-05-20 16:41:00,
2013-05-20 12:42:00,74.6,65.0,30.13,WNW,284,11.2,12.7,72,0.00,BKN,OVC,0.00,WeatherDisplay:10.37,2013-05-20 16:42:00,
2013-05-20 12:43:00,74.2,65.0,30.12,WNW,289,10.5,15.0,73,0.00,BKN,OVC,0.00,WeatherDisplay:10.37,2013-05-20 16:43:00,
2013-05-20 12:44:00,74.2,65.4,30.12,West,269,12.2,15.0,74,0.00,BKN,OVC,0.00,WeatherDisplay:10.37,2013-05-20 16:44:00,
2013-05-20 12:45:00,74.0,64.8,30.12,West,266,12.2,15.0,73,0.00,BKN,OVC,0.00,WeatherDisplay:10.37,2013-05-20 16:45:00,
2013-05-20 12:47:00,74.0,64.8,30.12,West,272,9.8,15.0,73,0.00,BKN,OVC,0.00,WeatherDisplay:10.37,2013-05-20 16:47:00,
2013-05-20 12:48:00,73.9,64.7,30.12,West,281,12.3,12.3,73,0.00,BKN,OVC,0.00,WeatherDisplay:10.37,2013-05-20 16:48:00,
2013-05-20 12:50:00,73.9,65.1,30.12,West,267,15.6,18.4,74,0.00,BKN,OVC,0.00,WeatherDisplay:10.37,2013-05-20 16:50:00,
2013-05-20 12:53:00,74.0,64.8,30.12,West,264,12.9,15.0,73,0.00,BKN,OVC,0.00,WeatherDisplay:10.37,2013-05-20 16:53:00,
2013-05-20 12:54:00,74.2,65.4,30.12,WSW,257,12.0,15.0,74,0.00,BKN,OVC,0.00,WeatherDisplay:10.37,2013-05-20 16:54:00,
2013-05-20 12:55:00,74.2,65.0,30.12,West,259,15.3,18.4,73,0.00,BKN,OVC,0.00,WeatherDisplay:10.37,2013-05-20 16:55:00,
2013-05-20 12:58:00,74.0,65.6,30.12,West,281,10.8,16.1,75,0.00,BKN,OVC,0.00,WeatherDisplay:10.37,2013-05-20 16:58:00,
2013-05-20 12:59:00,74.0,66.0,30.12,West,278,12.0,16.1,76,0.00,BKN,OVC,0.00,WeatherDisplay:10.37,2013-05-20 16:59:00,
2013-05-20 13:02:00,73.7,66.0,30.12,WNW,291,11.4,16.0,77,0.00,BKN,OVC,0.00,WeatherDisplay:10.37,2013-05-20 17:02:00,
2013-05-20 13:03:00,73.5,65.8,30.12,WNW,301,12.0,17.3,77,0.00,BKN,OVC,0.00,WeatherDisplay:10.37,2013-05-20 17:03:00,
2013-05-20 13:04:00,73.3,66.4,30.11,WNW,286,11.8,16.1,79,0.00,BKN,OVC,0.00,WeatherDisplay:10.37,2013-05-20 17:04:00,
2013-05-20 13:05:00,73.0,66.5,30.11,West,269,12.4,15.0,80,0.00,BKN,OVC,0.00,WeatherDisplay:10.37,2013-05-20 17:05:00,
2013-05-20 13:06:00,72.7,66.2,30.11,WNW,292,9.2,13.8,80,0.00,BKN,OVC,0.00,WeatherDisplay:10.37,2013-05-20 17:06:00,
2013-05-20 13:07:00,72.5,66.7,30.11,WNW,292,10.8,12.0,82,0.00,BKN,OVC,0.00,WeatherDisplay:10.37,2013-05-20 17:07:00,
2013-05-20 13:08:00,72.3,66.1,30.11,West,279,11.6,12.7,81,0.00,BKN,OVC,0.00,WeatherDisplay:10.37,2013-05-20 17:08:00,
2013-05-20 13:10:00,72.0,66.6,30.11,WNW,288,9.1,11.5,83,0.00,BKN,OVC,0.00,WeatherDisplay:10.37,2013-05-20 17:10:00,
2013-05-20 13:11:00,71.8,66.4,30.11,WNW,287,7.4,9.2,83,0.00,BKN,OVC,0.00,WeatherDisplay:10.37,2013-05-20 17:11:00,
2013-05-20 13:12:00,71.8,66.7,30.11,West,267,6.4,7.0,84,0.00,BKN,OVC,0.00,WeatherDisplay:10.37,2013-05-20 17:12:00,
2013-05-20 13:13:00,71.6,66.5,30.11,West,271,8.5,10.4,84,0.00,BKN,OVC,0.00,WeatherDisplay:10.37,2013-05-20 17:13:00,
2013-05-20 13:14:00,71.6,66.5,30.11,West,271,8.2,11.5,84,0.00,BKN,OVC,0.00,WeatherDisplay:10.37,2013-05-20 17:14:00,
2013-05-20 13:17:00,71.5,66.4,30.11,West,266,11.6,13.8,84,0.01,RA,OVC,0.01,WeatherDisplay:10.37,2013-05-20 17:17:00,
2013-05-20 13:18:00,71.3,66.6,30.11,West,271,8.2,13.8,85,0.01,RA,OVC,0.01,WeatherDisplay:10.37,2013-05-20 17:18:00,
2013-05-20 13:19:00,71.3,66.6,30.11,West,271,6.4,10.4,85,0.01,RA,OVC,0.01,WeatherDisplay:10.37,2013-05-20 17:19:00,
2013-05-20 13:20:00,71.1,66.4,30.11,WSW,257,9.2,11.5,85,0.01,RA,OVC,0.01,WeatherDisplay:10.37,2013-05-20 17:20:00,
2013-05-20 13:24:00,70.6,65.9,30.11,SW,227,9.2,11.5,85,0.01,RA,OVC,0.01,WeatherDisplay:10.37,2013-05-20 17:24:00,
2013-05-20 13:25:00,70.6,66.2,30.11,SW,235,11.4,13.8,86,0.01,RA,OVC,0.01,WeatherDisplay:10.37,2013-05-20 17:25:00,
2013-05-20 13:26:00,70.6,66.2,30.11,WSW,242,12.0,13.8,86,0.01,BKN,OVC,0.01,WeatherDisplay:10.37,2013-05-20 17:26:00,
2013-05-20 13:29:00,70.4,66.0,30.11,WSW,246,8.1,11.5,86,0.01,BKN,OVC,0.01,WeatherDisplay:10.37,2013-05-20 17:29:00,
2013-05-20 13:31:00,70.4,66.3,30.11,WSW,249,7.8,11.0,87,0.01,BKN,OVC,0.01,WeatherDisplay:10.37,2013-05-20 17:31:00,
2013-05-20 13:32:00,70.4,66.0,30.11,WSW,250,7.9,11.5,86,0.01,BKN,OVC,0.01,WeatherDisplay:10.37,2013-05-20 17:32:00,
2013-05-20 13:34:00,70.3,65.9,30.11,WSW,250,4.9,5.8,86,0.01,BKN,OVC,0.01,WeatherDisplay:10.37,2013-05-20 17:34:00,
2013-05-20 13:36:00,70.4,66.3,30.11,WSW,250,4.5,6.0,87,0.01,BKN,OVC,0.01,WeatherDisplay:10.37,2013-05-20 17:36:00,
2013-05-20 13:37:00,70.4,66.3,30.11,WSW,250,5.4,7.0,87,0.01,BKN,OVC,0.01,WeatherDisplay:10.37,2013-05-20 17:37:00,
2013-05-20 13:39:00,70.6,66.9,30.11,WSW,250,3.7,4.6,88,0.01,BKN,OVC,0.01,WeatherDisplay:10.37,2013-05-20 17:39:00,
2013-05-20 13:40:00,70.6,66.9,30.11,WSW,250,4.3,4.6,88,0.01,BKN,OVC,0.01,WeatherDisplay:10.37,2013-05-20 17:40:00,
2013-05-20 13:42:00,70.6,66.9,30.11,WSW,250,2.8,3.5,88,0.01,BKN,OVC,0.01,WeatherDisplay:10.37,2013-05-20 17:42:00,
2013-05-20 13:44:00,70.6,66.9,30.11,WSW,250,1.6,3.5,88,0.01,BKN,OVC,0.01,WeatherDisplay:10.37,2013-05-20 17:44:00,
2013-05-20 13:48:00,71.1,68.0,30.11,WSW,250,2.8,3.5,90,0.01,BKN,OVC,0.01,WeatherDisplay:10.37,2013-05-20 17:48:00,
2013-05-20 13:49:00,71.1,67.7,30.11,WSW,250,2.0,4.6,89,0.01,BKN,OVC,0.01,WeatherDisplay:10.37,2013-05-20 17:49:00,
2013-05-20 13:50:00,71.3,67.9,30.11,WSW,250,2.6,3.5,89,0.01,BKN,OVC,0.01,WeatherDisplay:10.37,2013-05-20 17:50:00,
2013-05-20 13:51:00,71.3,67.9,30.11,WSW,250,2.4,3.5,89,0.01,BKN,OVC,0.01,WeatherDisplay:10.37,2013-05-20 17:51:00,
2013-05-20 13:52:00,71.3,67.6,30.10,WSW,250,4.7,5.0,88,0.01,BKN,OVC,0.01,WeatherDisplay:10.37,2013-05-20 17:52:00,
2013-05-20 13:55:00,71.6,67.9,30.10,WSW,250,3.1,6.9,88,0.01,BKN,OVC,0.01,WeatherDisplay:10.37,2013-05-20 17:55:00,
2013-05-20 13:56:00,72.0,68.2,30.10,WSW,250,2.5,3.5,88,0.01,BKN,OVC,0.01,WeatherDisplay:10.37,2013-05-20 17:56:00,
2013-05-20 13:57:00,72.3,68.5,30.10,WSW,257,4.7,6.0,88,0.01,BKN,OVC,0.01,WeatherDisplay:10.37,2013-05-20 17:57:00,
2013-05-20 13:59:00,73.0,69.2,30.10,West,260,4.1,5.8,88,0.01,BKN,OVC,0.01,WeatherDisplay:10.37,2013-05-20 17:59:00,
2013-05-20 14:01:00,73.0,67.9,30.10,West,261,5.2,6.9,84,0.01,-RA,OVC,0.01,WeatherDisplay:10.37,2013-05-20 18:01:00,
2013-05-20 14:03:00,73.5,68.4,30.10,West,261,4.1,5.0,84,0.01,-RA,OVC,0.01,WeatherDisplay:10.37,2013-05-20 18:03:00,
2013-05-20 14:04:00,73.7,67.5,30.10,West,259,5.1,6.9,81,0.01,-RA,OVC,0.01,WeatherDisplay:10.37,2013-05-20 18:04:00,
2013-05-20 14:05:00,73.7,66.8,30.10,West,259,3.7,5.8,79,0.01,-RA,OVC,0.01,WeatherDisplay:10.37,2013-05-20 18:05:00,
2013-05-20 14:08:00,74.2,66.5,30.10,SW,222,7.9,11.5,77,0.01,-RA,OVC,0.01,WeatherDisplay:10.37,2013-05-20 18:08:00,
2013-05-20 14:09:00,74.2,66.5,30.10,SW,221,7.5,11.5,77,0.01,-RA,OVC,0.01,WeatherDisplay:10.37,2013-05-20 18:09:00,
2013-05-20 14:10:00,74.6,66.9,30.10,SW,223,7.0,11.5,77,0.01,-RA,OVC,0.01,WeatherDisplay:10.37,2013-05-20 18:10:00,
2013-05-20 14:11:00,74.6,66.9,30.10,SW,223,4.9,5.8,77,0.01,-RA,OVC,0.01,WeatherDisplay:10.37,2013-05-20 18:11:00,
2013-05-20 14:12:00,74.7,67.4,30.10,SW,228,6.0,9.2,78,0.01,-RA,OVC,0.01,WeatherDisplay:10.37,2013-05-20 18:12:00,
2013-05-20 14:14:00,74.9,66.8,30.10,WSW,242,8.4,11.5,76,0.01,-RA,OVC,0.01,WeatherDisplay:10.37,2013-05-20 18:14:00,
2013-05-20 14:15:00,74.9,66.4,30.10,WSW,242,4.9,9.2,75,0.01,-RA,OVC,0.01,WeatherDisplay:10.37,2013-05-20 18:15:00,
2013-05-20 14:18:00,75.3,67.6,30.10,West,259,5.2,9.2,77,0.00,-RA,OVC,0.01,WeatherDisplay:10.37,2013-05-20 18:18:00,
2013-05-20 14:19:00,75.4,68.1,30.10,West,265,7.5,11.5,78,0.00,-RA,OVC,0.01,WeatherDisplay:10.37,2013-05-20 18:19:00,
2013-05-20 14:21:00,75.4,66.9,30.10,WNW,287,5.4,11.0,75,0.00,-RA,OVC,0.01,WeatherDisplay:10.37,2013-05-20 18:21:00,
2013-05-20 14:22:00,75.8,67.7,30.10,West,267,8.9,11.5,76,0.00,-RA,OVC,0.01,WeatherDisplay:10.37,2013-05-20 18:22:00,
2013-05-20 14:24:00,75.8,66.9,30.10,WNW,299,9.7,13.8,74,0.00,-RA,OVC,0.01,WeatherDisplay:10.37,2013-05-20 18:24:00,
2013-05-20 14:25:00,75.8,65.7,30.10,West,279,13.1,17.3,71,0.00,-RA,OVC,0.01,WeatherDisplay:10.37,2013-05-20 18:25:00,
2013-05-20 14:26:00,75.8,64.5,30.10,West,275,12.8,16.1,68,0.00,-RA,OVC,0.01,WeatherDisplay:10.37,2013-05-20 18:26:00,
2013-05-20 14:30:00,75.6,64.3,30.09,West,275,15.0,20.0,68,0.00,-RA,OVC,0.01,WeatherDisplay:10.37,2013-05-20 18:30:00,
2013-05-20 14:31:00,75.6,65.1,30.09,West,262,8.5,11.5,70,0.00,-RA,OVC,0.01,WeatherDisplay:10.37,2013-05-20 18:31:00,
2013-05-20 14:32:00,75.6,65.1,30.09,WNW,295,11.4,19.6,70,0.00,-RA,OVC,0.01,WeatherDisplay:10.37,2013-05-20 18:32:00,
2013-05-20 14:36:00,76.0,65.1,30.10,WNW,301,8.8,15.0,69,0.00,-RA,OVC,0.01,WeatherDisplay:10.37,2013-05-20 18:36:00,
2013-05-20 14:37:00,76.0,64.2,30.10,NW,304,12.8,16.0,67,0.00,-RA,OVC,0.01,WeatherDisplay:10.37,2013-05-20 18:37:00,
2013-05-20 14:38:00,76.0,64.2,30.10,NW,306,13.9,17.3,67,0.00,-RA,OVC,0.01,WeatherDisplay:10.37,2013-05-20 18:38:00,
2013-05-20 14:41:00,75.6,63.9,30.10,West,266,14.0,16.1,67,0.00,-RA,OVC,0.01,WeatherDisplay:10.37,2013-05-20 18:41:00,
2013-05-20 14:42:00,75.8,63.6,30.10,WNW,296,9.5,18.4,66,0.00,-RA,OVC,0.01,WeatherDisplay:10.37,2013-05-20 18:42:00,
2013-05-20 14:44:00,75.8,63.6,30.10,WNW,286,14.7,19.6,66,0.00,-RA,OVC,0.01,WeatherDisplay:10.37,2013-05-20 18:44:00,
2013-05-20 14:45:00,75.8,63.6,30.10,WNW,296,15.0,20.0,66,0.00,-RA,OVC,0.01,WeatherDisplay:10.37,2013-05-20 18:45:00,
2013-05-20 14:47:00,76.0,65.1,30.10,West,277,9.5,11.5,69,0.00,-RA,OVC,0.01,WeatherDisplay:10.37,2013-05-20 18:47:00,
2013-05-20 14:48:00,76.0,63.8,30.10,WNW,302,9.6,11.5,66,0.00,-RA,OVC,0.01,WeatherDisplay:10.37,2013-05-20 18:48:00,
2013-05-20 14:49:00,76.0,64.2,30.10,WNW,283,7.2,10.4,67,0.00,-RA,OVC,0.01,WeatherDisplay:10.37,2013-05-20 18:49:00,
2013-05-20 14:52:00,76.1,64.3,30.10,WNW,298,9.5,12.0,67,0.00,-RA,OVC,0.01,WeatherDisplay:10.37,2013-05-20 18:52:00,
2013-05-20 14:53:00,76.1,64.3,30.10,WNW,291,7.6,11.5,67,0.00,-RA,OVC,0.01,WeatherDisplay:10.37,2013-05-20 18:53:00,
2013-05-20 14:54:00,76.1,65.2,30.10,WNW,287,5.7,6.9,69,0.00,-RA,OVC,0.01,WeatherDisplay:10.37,2013-05-20 18:54:00,
2013-05-20 14:55:00,76.3,65.0,30.10,WNW,296,7.5,10.4,68,0.00,-RA,OVC,0.01,WeatherDisplay:10.37,2013-05-20 18:55:00,
2013-05-20 14:59:00,76.5,65.1,30.10,West,270,7.3,11.5,68,0.00,-RA,OVC,0.01,WeatherDisplay:10.37,2013-05-20 18:59:00,
2013-05-20 15:01:00,76.7,64.5,30.10,WNW,283,9.9,13.8,66,0.00,BKN,OVC,0.01,WeatherDisplay:10.37,2013-05-20 19:01:00,
2013-05-20 15:04:00,76.3,63.2,30.10,West,270,13.2,16.1,64,0.00,BKN,OVC,0.01,WeatherDisplay:10.37,2013-05-20 19:04:00,
2013-05-20 15:05:00,76.3,62.8,30.10,West,276,12.4,16.1,63,0.00,BKN,OVC,0.01,WeatherDisplay:10.37,2013-05-20 19:05:00,
2013-05-20 15:06:00,76.1,63.5,30.09,West,273,8.3,11.5,65,0.00,BKN,OVC,0.01,WeatherDisplay:10.37,2013-05-20 19:06:00,
2013-05-20 15:07:00,76.1,63.5,30.09,NW,306,7.5,11.5,65,0.00,BKN,OVC,0.01,WeatherDisplay:10.37,2013-05-20 19:07:00,
2013-05-20 15:08:00,76.3,64.5,30.09,WNW,290,6.4,9.2,67,0.00,BKN,OVC,0.01,WeatherDisplay:10.37,2013-05-20 19:08:00,
2013-05-20 15:12:00,76.7,64.5,30.09,WNW,285,8.8,11.0,66,0.00,BKN,OVC,0.01,WeatherDisplay:10.37,2013-05-20 19:12:00,
2013-05-20 15:13:00,76.7,64.0,30.09,WNW,292,6.2,11.5,65,0.00,BKN,OVC,0.01,WeatherDisplay:10.37,2013-05-20 19:13:00,
2013-05-20 15:14:00,76.7,64.0,30.09,WNW,288,6.9,10.4,65,0.00,BKN,OVC,0.01,WeatherDisplay:10.37,2013-05-20 19:14:00,
2013-05-20 15:15:00,76.5,64.3,30.09,WNW,300,7.2,10.4,66,0.00,BKN,OVC,0.01,WeatherDisplay:10.37,2013-05-20 19:15:00,
2013-05-20 15:18:00,76.3,64.1,30.09,West,265,10.6,11.5,66,0.00,BKN,OVC,0.01,WeatherDisplay:10.37,2013-05-20 19:18:00,
2013-05-20 15:19:00,76.3,64.5,30.08,West,261,9.2,11.5,67,0.00,BKN,OVC,0.01,WeatherDisplay:10.37,2013-05-20 19:19:00,
2013-05-20 15:20:00,76.3,64.1,30.08,West,267,13.2,18.0,66,0.00,BKN,OVC,0.01,WeatherDisplay:10.37,2013-05-20 19:20:00,
2013-05-20 15:23:00,76.3,65.0,30.08,West,280,8.5,11.5,68,0.00,BKN,OVC,0.01,WeatherDisplay:10.37,2013-05-20 19:23:00,
2013-05-20 15:25:00,76.5,63.9,30.08,West,260,9.6,13.8,65,0.00,BKN,OVC,0.01,WeatherDisplay:10.37,2013-05-20 19:25:00,
2013-05-20 15:26:00,76.5,64.3,30.08,West,278,11.7,12.7,66,0.00,BKN,OVC,0.01,WeatherDisplay:10.37,2013-05-20 19:26:00,
2013-05-20 15:28:00,76.7,64.0,30.08,NW,323,6.4,10.4,65,0.00,BKN,OVC,0.01,WeatherDisplay:10.37,2013-05-20 19:28:00,
2013-05-20 15:30:00,76.8,63.7,30.08,WNW,302,6.1,8.1,64,0.00,BKN,OVC,0.01,WeatherDisplay:10.37,2013-05-20 19:30:00,
2013-05-20 15:32:00,76.7,63.6,30.08,WNW,300,4.5,5.8,64,0.00,BKN,OVC,0.01,WeatherDisplay:10.37,2013-05-20 19:32:00,
2013-05-20 15:33:00,76.8,64.1,30.08,WNW,288,4.4,5.8,65,0.00,BKN,OVC,0.01,WeatherDisplay:10.37,2013-05-20 19:33:00,
2013-05-20 15:34:00,76.8,64.1,30.08,West,281,4.7,10.0,65,0.00,BKN,OVC,0.01,WeatherDisplay:10.37,2013-05-20 19:34:00,
2013-05-20 15:36:00,77.0,64.3,30.08,WNW,292,5.2,7.0,65,0.00,BKN,OVC,0.01,WeatherDisplay:10.37,2013-05-20 19:36:00,
2013-05-20 15:37:00,77.0,63.4,30.08,NW,310,7.7,10.4,63,0.00,BKN,OVC,0.01,WeatherDisplay:10.37,2013-05-20 19:37:00,
2013-05-20 15:39:00,77.0,64.3,30.08,WNW,286,5.5,10.0,65,0.00,BKN,OVC,0.01,WeatherDisplay:10.37,2013-05-20 19:39:00,
2013-05-20 15:40:00,77.0,63.4,30.08,NW,306,7.9,11.0,63,0.00,BKN,OVC,0.01,WeatherDisplay:10.37,2013-05-20 19:40:00,
2013-05-20 15:41:00,77.0,63.4,30.08,WNW,300,8.2,11.5,63,0.00,BKN,OVC,0.01,WeatherDisplay:10.37,2013-05-20 19:41:00,
2013-05-20 15:43:00,77.0,63.0,30.08,West,278,6.3,10.4,62,0.00,BKN,OVC,0.01,WeatherDisplay:10.37,2013-05-20 19:43:00,
2013-05-20 15:45:00,77.0,62.0,30.08,West,278,6.0,6.9,60,0.00,BKN,OVC,0.01,WeatherDisplay:10.37,2013-05-20 19:45:00,
2013-05-20 15:47:00,77.2,62.7,30.08,West,279,9.0,13.8,61,0.00,BKN,OVC,0.01,WeatherDisplay:10.37,2013-05-20 19:47:00,
2013-05-20 15:49:00,77.4,62.4,30.08,NW,325,9.1,12.7,60,0.00,BKN,OVC,0.01,WeatherDisplay:10.37,2013-05-20 19:49:00,
2013-05-20 15:50:00,77.4,62.4,30.08,NNW,331,9.0,12.7,60,0.00,BKN,OVC,0.01,WeatherDisplay:10.37,2013-05-20 19:50:00,
2013-05-20 15:53:00,77.2,62.2,30.08,NNW,348,5.4,6.9,60,0.00,BKN,OVC,0.01,WeatherDisplay:10.37,2013-05-20 19:53:00,
2013-05-20 15:55:00,77.4,62.9,30.06,NNW,345,2.9,3.5,61,0.00,BKN,OVC,0.01,WeatherDisplay:10.37,2013-05-20 19:55:00,
2013-05-20 15:56:00,77.4,62.9,30.06,WNW,298,3.7,7.0,61,0.00,BKN,OVC,0.01,WeatherDisplay:10.37,2013-05-20 19:56:00,
2013-05-20 15:57:00,77.4,63.4,30.06,West,277,7.2,11.5,62,0.00,BKN,OVC,0.01,WeatherDisplay:10.37,2013-05-20 19:57:00,
2013-05-20 15:58:00,77.6,63.1,30.06,WNW,285,10.4,12.7,61,0.00,BKN,OVC,0.01,WeatherDisplay:10.37,2013-05-20 19:58:00,
2013-05-20 16:02:00,77.6,63.1,30.06,NW,306,4.2,7.0,61,0.00,SCT,OVC,0.01,WeatherDisplay:10.37,2013-05-20 20:02:00,
2013-05-20 16:03:00,77.6,63.5,30.06,WNW,297,5.5,9.2,62,0.00,SCT,OVC,0.01,WeatherDisplay:10.37,2013-05-20 20:03:00,
2013-05-20 16:05:00,77.7,64.1,30.06,West,276,4.2,13.0,63,0.00,SCT,OVC,0.01,WeatherDisplay:10.37,2013-05-20 20:05:00,
2013-05-20 16:06:00,77.7,62.7,30.06,West,272,11.6,12.7,60,0.00,SCT,OVC,0.01,WeatherDisplay:10.37,2013-05-20 20:06:00,
2013-05-20 16:08:00,77.9,62.4,30.06,WNW,284,4.0,6.0,59,0.00,SCT,OVC,0.01,WeatherDisplay:10.37,2013-05-20 20:08:00,
2013-05-20 16:10:00,77.9,63.4,30.07,WNW,285,4.9,5.8,61,0.00,SCT,OVC,0.01,WeatherDisplay:10.37,2013-05-20 20:10:00,
2013-05-20 16:11:00,78.1,63.6,30.06,WNW,285,2.7,5.8,61,0.00,SCT,OVC,0.01,WeatherDisplay:10.37,2013-05-20 20:11:00,
2013-05-20 16:12:00,78.1,63.1,30.06,WNW,292,3.9,6.0,60,0.00,SCT,OVC,0.01,WeatherDisplay:10.37,2013-05-20 20:12:00,
2013-05-20 16:14:00,78.1,63.1,30.06,NW,311,5.9,8.1,60,0.00,SCT,OVC,0.01,WeatherDisplay:10.37,2013-05-20 20:14:00,
2013-05-20 16:15:00,78.0,62.5,30.06,WNW,288,5.0,14.0,59,0.00,SCT,OVC,0.01,WeatherDisplay:10.37,2013-05-20 20:15:00,
2013-05-20 16:16:00,77.9,62.9,30.06,North,360,4.8,8.0,60,0.00,SCT,OVC,0.01,WeatherDisplay:10.37,2013-05-20 20:16:00,
2013-05-20 16:17:00,78.1,64.0,30.06,North,360,5.6,8.1,62,0.00,SCT,OVC,0.01,WeatherDisplay:10.37,2013-05-20 20:17:00,
2013-05-20 16:20:00,78.1,63.1,30.07,NW,316,7.6,11.5,60,0.00,SCT,OVC,0.01,WeatherDisplay:10.37,2013-05-20 20:20:00,
2013-05-20 16:21:00,78.1,63.1,30.07,NW,317,3.5,8.1,60,0.00,SCT,OVC,0.01,WeatherDisplay:10.37,2013-05-20 20:21:00,
2013-05-20 16:23:00,78.1,63.1,30.07,NW,317,2.7,4.0,60,0.00,SCT,OVC,0.01,WeatherDisplay:10.37,2013-05-20 20:23:00,
2013-05-20 16:25:00,78.5,63.5,30.07,NW,323,7.2,10.4,60,0.00,SCT,OVC,0.01,WeatherDisplay:10.37,2013-05-20 20:25:00,
2013-05-20 16:26:00,78.6,63.6,30.07,WNW,299,6.4,8.1,60,0.00,SCT,OVC,0.01,WeatherDisplay:10.37,2013-05-20 20:26:00,
2013-05-20 16:27:00,78.6,64.0,30.07,NW,323,6.2,6.9,61,0.00,SCT,OVC,0.01,WeatherDisplay:10.37,2013-05-20 20:27:00,
2013-05-20 16:29:00,78.6,63.1,30.07,WNW,302,7.9,10.0,59,0.00,SCT,OVC,0.01,WeatherDisplay:10.37,2013-05-20 20:29:00,
2013-05-20 16:30:00,78.6,63.6,30.07,NW,304,5.6,10.4,60,0.00,SCT,OVC,0.01,WeatherDisplay:10.37,2013-05-20 20:30:00,
2013-05-20 16:32:00,78.5,63.0,30.07,NW,304,4.8,6.9,59,0.00,SCT,OVC,0.01,WeatherDisplay:10.37,2013-05-20 20:32:00,
2013-05-20 16:34:00,78.3,62.8,30.06,NW,304,3.3,7.0,59,0.00,SCT,OVC,0.01,WeatherDisplay:10.37,2013-05-20 20:34:00,
2013-05-20 16:37:00,78.1,63.6,30.07,WNW,294,4.9,9.2,61,0.00,SCT,OVC,0.01,WeatherDisplay:10.37,2013-05-20 20:37:00,
2013-05-20 16:38:00,78.3,63.7,30.07,WNW,303,4.4,10.0,61,0.00,SCT,OVC,0.01,WeatherDisplay:10.37,2013-05-20 20:38:00,
2013-05-20 16:39:00,78.5,63.9,30.07,NW,317,9.1,10.4,61,0.00,SCT,OVC,0.01,WeatherDisplay:10.37,2013-05-20 20:39:00,
2013-05-20 16:40:00,78.5,63.9,30.07,NW,318,9.2,11.5,61,0.00,SCT,OVC,0.01,WeatherDisplay:10.37,2013-05-20 20:40:00,
2013-05-20 16:44:00,78.6,63.1,30.07,WNW,293,5.0,9.0,59,0.00,SCT,OVC,0.01,WeatherDisplay:10.37,2013-05-20 20:44:00,
2013-05-20 16:45:00,78.6,63.1,30.07,West,280,9.1,11.5,59,0.00,SCT,OVC,0.01,WeatherDisplay:10.37,2013-05-20 20:45:00,
2013-05-20 16:46:00,78.5,63.0,30.07,West,269,9.3,11.0,59,0.00,SCT,OVC,0.01,WeatherDisplay:10.37,2013-05-20 20:46:00,
2013-05-20 16:49:00,78.3,63.3,30.07,WNW,293,5.4,6.9,60,0.00,SCT,OVC,0.01,WeatherDisplay:10.37,2013-05-20 20:49:00,
2013-05-20 16:51:00,78.1,63.1,30.06,WNW,294,5.3,5.8,60,0.00,SCT,OVC,0.01,WeatherDisplay:10.37,2013-05-20 20:51:00,
2013-05-20 16:52:00,78.1,63.1,30.06,WNW,293,4.3,5.8,60,0.00,SCT,OVC,0.01,WeatherDisplay:10.37,2013-05-20 20:52:00,
2013-05-20 16:54:00,77.9,63.4,30.06,WNW,294,3.1,4.6,61,0.00,SCT,OVC,0.01,WeatherDisplay:10.37,2013-05-20 20:54:00,
2013-05-20 16:56:00,77.9,63.8,30.06,WNW,294,0.0,0.0,62,0.00,SCT,OVC,0.01,WeatherDisplay:10.37,2013-05-20 20:56:00,
2013-05-20 16:57:00,78.1,64.5,30.06,WNW,294,0.0,0.0,63,0.00,SCT,OVC,0.01,WeatherDisplay:10.37,2013-05-20 20:57:00,
2013-05-20 17:00:00,78.1,63.6,30.06,WNW,293,1.0,12.0,61,0.00,SCT,OVC,0.01,WeatherDisplay:10.37,2013-05-20 21:00:00,
2013-05-20 17:01:00,78.1,63.6,30.06,WNW,293,0.0,2.3,61,0.00,BKN,OVC,0.01,WeatherDisplay:10.37,2013-05-20 21:01:00,
2013-05-20 17:03:00,78.3,64.2,30.06,WNW,292,4.4,6.9,62,0.00,BKN,OVC,0.01,WeatherDisplay:10.37,2013-05-20 21:03:00,
2013-05-20 17:05:00,78.3,64.2,30.06,WNW,292,1.9,3.5,62,0.00,BKN,OVC,0.01,WeatherDisplay:10.37,2013-05-20 21:05:00,
2013-05-20 17:07:00,78.3,64.7,30.06,WNW,292,2.9,6.0,63,0.00,BKN,OVC,0.01,WeatherDisplay:10.37,2013-05-20 21:07:00,
2013-05-20 17:08:00,78.1,63.1,30.06,WNW,292,5.0,6.0,60,0.00,BKN,OVC,0.01,WeatherDisplay:10.37,2013-05-20 21:08:00,
2013-05-20 17:09:00,78.1,64.0,30.06,WNW,292,3.4,5.8,62,0.00,BKN,OVC,0.01,WeatherDisplay:10.37,2013-05-20 21:09:00,
2013-05-20 17:11:00,78.1,64.0,30.06,WNW,292,3.5,6.0,62,0.00,BKN,OVC,0.01,WeatherDisplay:10.37,2013-05-20 21:11:00,
2013-05-20 17:13:00,77.9,63.4,30.06,WNW,287,6.0,6.9,61,0.00,BKN,OVC,0.01,WeatherDisplay:10.37,2013-05-20 21:13:00,
2013-05-20 17:14:00,77.9,63.4,30.06,WNW,287,5.6,6.9,61,0.00,BKN,OVC,0.01,WeatherDisplay:10.37,2013-05-20 21:14:00,
2013-05-20 17:15:00,77.7,63.2,30.06,WNW,288,4.5,6.0,61,0.00,BKN,OVC,0.01,WeatherDisplay:10.37,2013-05-20 21:15:00,
2013-05-20 17:19:00,77.9,65.2,30.06,WNW,288,2.8,3.5,65,0.00,BKN,OVC,0.01,WeatherDisplay:10.37,2013-05-20 21:19:00,
2013-05-20 17:20:00,77.7,64.1,30.06,WNW,288,2.0,3.5,63,0.00,BKN,OVC,0.01,WeatherDisplay:10.37,2013-05-20 21:20:00,
2013-05-20 17:21:00,77.7,63.6,30.06,WNW,288,0.9,2.3,62,0.00,BKN,OVC,0.01,WeatherDisplay:10.37,2013-05-20 21:21:00,
2013-05-20 17:24:00,77.7,63.2,30.06,WNW,288,0.8,3.5,61,0.00,BKN,OVC,0.01,WeatherDisplay:10.37,2013-05-20 21:24:00,
2013-05-20 17:25:00,77.7,63.6,30.06,WNW,288,0.8,2.3,62,0.00,BKN,OVC,0.01,WeatherDisplay:10.37,2013-05-20 21:25:00,
2013-05-20 17:26:00,77.9,63.8,30.06,WNW,288,1.2,3.5,62,0.00,BKN,OVC,0.01,WeatherDisplay:10.37,2013-05-20 21:26:00,
2013-05-20 17:27:00,77.9,64.3,30.06,WNW,288,2.6,3.5,63,0.00,BKN,OVC,0.01,WeatherDisplay:10.37,2013-05-20 21:27:00,
2013-05-20 17:29:00,77.9,64.3,30.06,WNW,288,1.7,4.6,63,0.00,BKN,OVC,0.01,WeatherDisplay:10.37,2013-05-20 21:29:00,
2013-05-20 17:31:00,77.9,65.2,30.06,WNW,287,2.6,7.0,65,0.00,BKN,OVC,0.01,WeatherDisplay:10.37,2013-05-20 21:31:00,
2013-05-20 17:32:00,77.7,64.1,30.06,WNW,287,5.3,7.0,63,0.00,BKN,OVC,0.01,WeatherDisplay:10.37,2013-05-20 21:32:00,
2013-05-20 17:33:00,77.7,65.0,30.06,WNW,285,4.6,6.9,65,0.00,BKN,OVC,0.01,WeatherDisplay:10.37,2013-05-20 21:33:00,
2013-05-20 17:35:00,77.7,64.5,30.06,WNW,286,5.0,6.9,64,0.00,BKN,OVC,0.01,WeatherDisplay:10.37,2013-05-20 21:35:00,
2013-05-20 17:37:00,77.4,64.7,30.06,WNW,289,5.9,10.4,65,0.00,BKN,OVC,0.01,WeatherDisplay:10.37,2013-05-20 21:37:00,
2013-05-20 17:38:00,77.4,65.6,30.06,NW,304,6.6,10.4,67,0.00,BKN,OVC,0.01,WeatherDisplay:10.37,2013-05-20 21:38:00,
2013-05-20 17:41:00,76.8,65.0,30.06,North,5,20.0,26.5,67,0.00,BKN,OVC,0.01,WeatherDisplay:10.37,2013-05-20 21:41:00,
2013-05-20 17:42:00,76.0,64.2,30.06,NNE,32,20.1,26.5,67,0.00,BKN,OVC,0.01,WeatherDisplay:10.37,2013-05-20 21:42:00,
2013-05-20 17:43:00,74.9,61.5,30.06,NNE,29,20.6,29.9,63,0.00,BKN,OVC,0.01,WeatherDisplay:10.37,2013-05-20 21:43:00,
2013-05-20 17:44:00,73.9,60.1,30.06,North,360,22.4,33.4,62,0.00,BKN,OVC,0.01,WeatherDisplay:10.37,2013-05-20 21:44:00,
2013-05-20 17:49:00,66.6,60.6,30.05,North,360,13.8,20.7,81,0.13,RA,OVC,0.14,WeatherDisplay:10.37,2013-05-20 21:49:00,
2013-05-20 17:50:00,65.8,60.8,30.05,NE,35,7.1,20.7,84,0.15,RA,OVC,0.16,WeatherDisplay:10.37,2013-05-20 21:50:00,
2013-05-20 17:53:00,66.1,63.4,30.09,East,91,7.5,11.0,91,0.25,RA,OVC,0.28,WeatherDisplay:10.37,2013-05-20 21:53:00,
2013-05-20 17:55:00,65.6,62.9,30.09,East,88,6.4,10.4,91,0.30,RA,OVC,0.31,WeatherDisplay:10.37,2013-05-20 21:55:00,
2013-05-20 17:56:00,65.3,62.6,30.09,East,88,5.4,6.9,91,0.30,RA,OVC,0.31,WeatherDisplay:10.37,2013-05-20 21:56:00,
2013-05-20 17:57:00,65.2,62.8,30.09,East,85,4.7,6.9,92,0.30,RA,OVC,0.31,WeatherDisplay:10.37,2013-05-20 21:57:00,
2013-05-20 17:58:00,64.8,62.4,30.09,ENE,67,2.4,3.5,92,0.30,RA,OVC,0.31,WeatherDisplay:10.37,2013-05-20 21:58:00,
2013-05-20 17:59:00,64.5,62.4,30.08,North,360,3.7,5.8,93,0.30,RA,OVC,0.31,WeatherDisplay:10.37,2013-05-20 21:59:00,
2013-05-20 18:02:00,64.2,62.7,30.08,North,360,0.8,3.5,95,0.30,RA,OVC,0.31,WeatherDisplay:10.37,2013-05-20 22:02:00,
2013-05-20 18:04:00,64.0,62.8,30.08,North,360,0.1,1.1,96,0.33,RA,OVC,0.34,WeatherDisplay:10.37,2013-05-20 22:04:00,
2013-05-20 18:05:00,64.0,62.8,30.08,North,360,0.0,0.0,96,0.33,RA,OVC,0.34,WeatherDisplay:10.37,2013-05-20 22:05:00,
2013-05-20 18:07:00,64.0,62.8,30.07,North,360,0.0,0.0,96,0.33,RA,OVC,0.34,WeatherDisplay:10.37,2013-05-20 22:07:00,
2013-05-20 18:09:00,64.2,63.3,30.07,ENE,57,6.0,9.0,97,0.33,RA,OVC,0.34,WeatherDisplay:10.37,2013-05-20 22:09:00,
2013-05-20 18:10:00,64.2,63.3,30.07,ENE,57,6.8,9.2,97,0.33,RA,OVC,0.34,WeatherDisplay:10.37,2013-05-20 22:10:00,
2013-05-20 18:12:00,64.3,63.4,30.07,ENE,57,4.0,5.0,97,0.33,RA,OVC,0.34,WeatherDisplay:10.37,2013-05-20 22:12:00,
2013-05-20 18:14:00,64.5,63.9,30.07,ENE,57,0.0,3.5,98,0.33,BKN,OVC,0.35,WeatherDisplay:10.37,2013-05-20 22:14:00,
2013-05-20 18:15:00,64.5,63.9,30.07,ENE,57,0.0,0.0,98,0.34,RA,OVC,0.35,WeatherDisplay:10.37,2013-05-20 22:15:00,
2013-05-20 18:16:00,64.5,63.9,30.07,ENE,57,0.0,0.0,98,0.34,RA,OVC,0.35,WeatherDisplay:10.37,2013-05-20 22:16:00,
2013-05-20 18:17:00,64.7,64.1,30.07,ENE,57,0.0,0.0,98,0.34,RA,OVC,0.35,WeatherDisplay:10.37,2013-05-20 22:17:00,
2013-05-20 18:18:00,64.7,64.1,30.07,ENE,57,0.0,0.0,98,0.34,RA,OVC,0.35,WeatherDisplay:10.37,2013-05-20 22:18:00,
2013-05-20 18:20:00,64.7,64.1,30.07,ENE,57,0.0,0.0,98,0.34,RA,OVC,0.35,WeatherDisplay:10.37,2013-05-20 22:20:00,
2013-05-20 18:21:00,64.8,64.5,30.07,ENE,57,0.0,0.0,99,0.34,RA,OVC,0.35,WeatherDisplay:10.37,2013-05-20 22:21:00,
2013-05-20 18:23:00,65.0,64.7,30.07,ENE,57,0.0,0.0,99,0.34,RA,OVC,0.35,WeatherDisplay:10.37,2013-05-20 22:23:00,
2013-05-20 18:24:00,65.3,65.0,30.07,ENE,57,0.0,0.0,99,0.34,RA,OVC,0.35,WeatherDisplay:10.37,2013-05-20 22:24:00,
2013-05-20 18:26:00,65.5,65.2,30.07,ENE,57,0.1,1.1,99,0.34,BKN,OVC,0.35,WeatherDisplay:10.37,2013-05-20 22:26:00,
2013-05-20 18:28:00,65.5,65.2,30.07,ENE,57,1.9,3.5,99,0.34,BKN,OVC,0.35,WeatherDisplay:10.37,2013-05-20 22:28:00,
2013-05-20 18:30:00,65.6,65.3,30.07,ENE,57,0.0,2.3,99,0.34,BKN,OVC,0.35,WeatherDisplay:10.37,2013-05-20 22:30:00,
2013-05-20 18:33:00,65.6,65.3,30.07,ENE,57,0.0,0.0,99,0.34,BKN,OVC,0.35,WeatherDisplay:10.37,2013-05-20 22:33:00,
2013-05-20 18:34:00,65.6,65.3,30.07,ENE,57,0.9,5.0,99,0.34,BKN,OVC,0.35,WeatherDisplay:10.37,2013-05-20 22:34:00,
2013-05-20 18:36:00,65.8,65.5,30.06,ENE,57,4.8,6.0,99,0.34,BKN,OVC,0.35,WeatherDisplay:10.37,2013-05-20 22:36:00,
2013-05-20 18:40:00,66.0,66.0,30.06,ENE,57,0.2,3.5,100,0.34,BKN,OVC,0.35,WeatherDisplay:10.37,2013-05-20 22:40:00,
2013-05-20 18:41:00,66.1,66.1,30.06,ENE,57,0.0,0.0,100,0.34,BKN,OVC,0.35,WeatherDisplay:10.37,2013-05-20 22:41:00,
2013-05-20 18:42:00,66.1,66.1,30.06,ENE,57,0.0,0.0,100,0.34,BKN,OVC,0.35,WeatherDisplay:10.37,2013-05-20 22:42:00,
2013-05-20 18:43:00,66.1,66.1,30.06,ENE,57,0.0,0.0,100,0.34,BKN,OVC,0.35,WeatherDisplay:10.37,2013-05-20 22:43:00,
2013-05-20 18:44:00,66.3,66.3,30.06,ENE,57,0.0,0.0,100,0.34,BKN,OVC,0.35,WeatherDisplay:10.37,2013-05-20 22:44:00,
2013-05-20 18:45:00,66.3,66.3,30.06,ENE,57,0.0,0.0,100,0.33,BKN,OVC,0.35,WeatherDisplay:10.37,2013-05-20 22:45:00,
2013-05-20 18:47:00,66.4,66.4,30.06,ENE,57,0.0,0.0,100,0.29,BKN,OVC,0.35,WeatherDisplay:10.37,2013-05-20 22:47:00,
2013-05-20 18:50:00,66.6,66.6,30.05,ENE,57,0.0,0.0,100,0.19,BKN,OVC,0.35,WeatherDisplay:10.37,2013-05-20 22:50:00,
2013-05-20 18:52:00,66.9,66.9,30.05,ENE,57,0.0,0.0,100,0.11,BKN,OVC,0.35,WeatherDisplay:10.37,2013-05-20 22:52:00,
2013-05-20 18:54:00,66.9,66.9,30.05,ENE,57,2.3,3.5,100,0.06,BKN,OVC,0.35,WeatherDisplay:10.37,2013-05-20 22:54:00,
2013-05-20 18:55:00,66.9,66.9,30.05,ENE,57,1.9,3.5,100,0.04,BKN,OVC,0.35,WeatherDisplay:10.37,2013-05-20 22:55:00,
2013-05-20 18:56:00,67.1,67.1,30.05,ENE,57,0.0,2.3,100,0.04,BKN,OVC,0.35,WeatherDisplay:10.37,2013-05-20 22:56:00,
2013-05-20 18:57:00,67.1,67.1,30.05,ENE,57,0.0,0.0,100,0.04,BKN,OVC,0.35,WeatherDisplay:10.37,2013-05-20 22:57:00,
2013-05-20 18:58:00,67.1,67.1,30.05,ENE,57,0.0,0.0,100,0.04,BKN,OVC,0.35,WeatherDisplay:10.37,2013-05-20 22:58:00,
2013-05-20 19:01:00,67.3,67.3,30.05,ENE,57,0.0,0.0,100,0.04,-RA,OVC,0.35,WeatherDisplay:10.37,2013-05-20 23:01:00,
2013-05-20 19:02:00,67.4,67.4,30.05,ENE,57,0.0,0.0,100,0.04,-RA,OVC,0.35,WeatherDisplay:10.37,2013-05-20 23:02:00,
2013-05-20 19:03:00,67.4,67.4,30.05,ENE,57,0.0,0.0,100,0.03,-RA,OVC,0.35,WeatherDisplay:10.37,2013-05-20 23:03:00,
2013-05-20 19:05:00,67.4,67.4,30.05,ENE,57,0.0,0.0,100,0.01,-RA,OVC,0.35,WeatherDisplay:10.37,2013-05-20 23:05:00,
2013-05-20 19:07:00,67.9,67.9,30.06,ENE,57,0.0,0.0,100,0.01,-RA,OVC,0.35,WeatherDisplay:10.37,2013-05-20 23:07:00,
2013-05-20 19:08:00,67.9,67.9,30.06,ENE,57,0.0,0.0,100,0.01,-RA,OVC,0.35,WeatherDisplay:10.37,2013-05-20 23:08:00,
2013-05-20 19:09:00,67.9,67.9,30.06,ENE,57,0.0,0.0,100,0.01,-RA,OVC,0.35,WeatherDisplay:10.37,2013-05-20 23:09:00,
2013-05-20 19:11:00,68.1,68.1,30.07,ENE,57,0.0,0.0,100,0.01,-RA,OVC,0.35,WeatherDisplay:10.37,2013-05-20 23:11:00,
2013-05-20 19:12:00,68.1,68.1,30.07,ENE,57,0.0,0.0,100,0.01,-RA,OVC,0.35,WeatherDisplay:10.37,2013-05-20 23:12:00,
2013-05-20 19:13:00,68.3,68.3,30.07,ENE,57,0.0,0.0,100,0.01,-RA,OVC,0.35,WeatherDisplay:10.37,2013-05-20 23:13:00,
2013-05-20 19:15:00,68.3,68.3,30.07,ENE,57,0.0,1.0,100,0.00,-RA,OVC,0.35,WeatherDisplay:10.37,2013-05-20 23:15:00,
2013-05-20 19:17:00,68.3,68.3,30.07,ENE,57,0.0,0.0,100,0.00,-RA,OVC,0.35,WeatherDisplay:10.37,2013-05-20 23:17:00,
2013-05-20 19:20:00,68.4,68.4,30.07,ENE,57,0.0,0.0,100,0.00,-RA,OVC,0.35,WeatherDisplay:10.37,2013-05-20 23:20:00,
2013-05-20 19:22:00,68.3,68.3,30.06,ENE,57,0.0,0.0,100,0.00,-RA,OVC,0.35,WeatherDisplay:10.37,2013-05-20 23:22:00,
2013-05-20 19:23:00,68.3,68.3,30.06,ENE,57,0.0,0.0,100,0.00,-RA,OVC,0.35,WeatherDisplay:10.37,2013-05-20 23:23:00,
2013-05-20 19:24:00,68.3,68.3,30.06,ENE,57,0.0,0.0,100,0.00,-RA,OVC,0.35,WeatherDisplay:10.37,2013-05-20 23:24:00,
2013-05-20 19:27:00,68.3,68.3,30.06,ENE,57,0.0,0.0,100,0.00,-RA,OVC,0.35,WeatherDisplay:10.37,2013-05-20 23:27:00,
2013-05-20 19:28:00,68.3,68.3,30.06,ENE,57,0.0,0.0,100,0.00,-RA,OVC,0.35,WeatherDisplay:10.37,2013-05-20 23:28:00,
2013-05-20 19:29:00,68.3,68.3,30.06,ENE,57,0.0,0.0,100,0.00,-RA,OVC,0.35,WeatherDisplay:10.37,2013-05-20 23:29:00,
2013-05-20 19:31:00,68.3,68.3,30.06,ENE,57,3.1,4.0,100,0.00,-RA,OVC,0.35,WeatherDisplay:10.37,2013-05-20 23:31:00,
2013-05-20 19:33:00,68.1,68.1,30.06,ENE,57,3.3,3.5,100,0.00,-RA,OVC,0.35,WeatherDisplay:10.37,2013-05-20 23:33:00,
2013-05-20 19:35:00,68.3,68.3,30.06,ENE,57,3.4,3.5,100,0.00,-RA,OVC,0.35,WeatherDisplay:10.37,2013-05-20 23:35:00,
2013-05-20 19:36:00,68.3,68.3,30.07,ENE,57,3.0,4.0,100,0.00,-RA,OVC,0.35,WeatherDisplay:10.37,2013-05-20 23:36:00,
2013-05-20 19:37:00,68.3,68.3,30.07,ENE,57,2.8,3.5,100,0.00,-RA,OVC,0.35,WeatherDisplay:10.37,2013-05-20 23:37:00,
2013-05-20 19:39:00,68.3,68.3,30.07,ENE,57,2.6,4.0,100,0.00,-RA,OVC,0.35,WeatherDisplay:10.37,2013-05-20 23:39:00,
2013-05-20 19:40:00,68.3,68.3,30.07,ENE,57,1.7,3.5,100,0.00,-RA,OVC,0.35,WeatherDisplay:10.37,2013-05-20 23:40:00,
2013-05-20 19:42:00,68.3,68.3,30.07,ENE,57,0.0,0.0,100,0.00,-RA,OVC,0.35,WeatherDisplay:10.37,2013-05-20 23:42:00,
2013-05-20 19:43:00,68.3,68.3,30.07,ENE,57,0.0,0.0,100,0.00,-RA,OVC,0.35,WeatherDisplay:10.37,2013-05-20 23:43:00,
2013-05-20 19:44:00,68.3,68.3,30.07,ENE,57,0.0,0.0,100,0.00,-RA,OVC,0.35,WeatherDisplay:10.37,2013-05-20 23:44:00,
2013-05-20 19:45:00,68.3,68.3,30.07,ENE,57,0.0,0.0,100,0.00,-RA,OVC,0.35,WeatherDisplay:10.37,2013-05-20 23:45:00,
2013-05-20 19:47:00,68.3,68.3,30.07,ENE,57,0.0,0.0,100,0.00,-RA,OVC,0.35,WeatherDisplay:10.37,2013-05-20 23:47:00,
2013-05-20 19:48:00,68.3,68.3,30.07,ENE,57,0.0,0.0,100,0.00,-RA,OVC,0.35,WeatherDisplay:10.37,2013-05-20 23:48:00,
2013-05-20 19:50:00,68.3,68.3,30.07,ENE,57,0.0,0.0,100,0.00,-RA,OVC,0.35,WeatherDisplay:10.37,2013-05-20 23:50:00,
2013-05-20 19:53:00,68.4,68.4,30.08,ENE,57,0.0,0.0,100,0.00,-RA,OVC,0.35,WeatherDisplay:10.37,2013-05-20 23:53:00,
2013-05-20 19:55:00,68.4,68.4,30.08,ENE,57,0.0,0.0,100,0.00,-RA,OVC,0.35,WeatherDisplay:10.37,2013-05-20 23:55:00,
2013-05-20 19:57:00,68.4,68.4,30.08,ENE,57,0.0,0.0,100,0.00,-RA,OVC,0.35,WeatherDisplay:10.37,2013-05-20 23:57:00,
2013-05-20 19:58:00,68.4,68.4,30.08,ENE,57,0.0,0.0,100,0.00,-RA,OVC,0.35,WeatherDisplay:10.37,2013-05-20 23:58:00,
2013-05-20 19:59:00,68.4,68.4,30.08,ENE,57,0.0,0.0,100,0.00,-RA,OVC,0.35,WeatherDisplay:10.37,2013-05-20 23:59:00,
2013-05-20 20:01:00,68.4,68.4,30.08,ENE,57,0.0,0.0,100,0.00,BKN,OVC,0.35,WeatherDisplay:10.37,2013-05-21 00:01:00,
2013-05-20 20:03:00,68.3,68.3,30.08,ENE,57,0.0,0.0,100,0.00,BKN,OVC,0.35,WeatherDisplay:10.37,2013-05-21 00:03:00,
2013-05-20 20:04:00,68.3,68.3,30.08,ENE,57,0.0,0.0,100,0.00,BKN,OVC,0.35,WeatherDisplay:10.37,2013-05-21 00:04:00,
2013-05-20 20:07:00,68.3,68.3,30.08,ENE,57,0.0,0.0,100,0.00,BKN,OVC,0.35,WeatherDisplay:10.37,2013-05-21 00:07:00,
2013-05-20 20:08:00,68.3,68.3,30.08,ENE,57,0.0,0.0,100,0.00,BKN,OVC,0.35,WeatherDisplay:10.37,2013-05-21 00:08:00,
2013-05-20 20:09:00,68.3,68.3,30.08,ENE,57,0.0,0.0,100,0.00,BKN,OVC,0.35,WeatherDisplay:10.37,2013-05-21 00:09:00,
2013-05-20 20:10:00,68.3,68.3,30.08,ENE,57,0.0,0.0,100,0.00,BKN,OVC,0.35,WeatherDisplay:10.37,2013-05-21 00:10:00,
2013-05-20 20:12:00,68.3,68.3,30.08,ENE,57,0.0,0.0,100,0.00,BKN,OVC,0.35,WeatherDisplay:10.37,2013-05-21 00:12:00,
2013-05-20 20:13:00,68.3,68.3,30.08,ENE,57,0.0,0.0,100,0.00,BKN,OVC,0.35,WeatherDisplay:10.37,2013-05-21 00:13:00,
2013-05-20 20:14:00,68.3,68.3,30.08,ENE,57,0.0,0.0,100,0.00,BKN,OVC,0.35,WeatherDisplay:10.37,2013-05-21 00:14:00,
2013-05-20 20:15:00,68.3,68.3,30.08,ENE,57,0.0,0.0,100,0.00,BKN,OVC,0.35,WeatherDisplay:10.37,2013-05-21 00:15:00,
2013-05-20 20:19:00,68.3,68.3,30.08,ENE,57,0.0,0.0,100,0.00,BKN,OVC,0.35,WeatherDisplay:10.37,2013-05-21 00:19:00,
2013-05-20 20:20:00,68.3,68.3,30.08,ENE,57,0.0,0.0,100,0.00,BKN,OVC,0.35,WeatherDisplay:10.37,2013-05-21 00:20:00,
2013-05-20 20:22:00,68.3,68.3,30.08,ENE,57,0.0,0.0,100,0.00,BKN,OVC,0.35,WeatherDisplay:10.37,2013-05-21 00:22:00,
2013-05-20 20:25:00,68.1,68.1,30.08,ENE,57,0.0,0.0,100,0.00,BKN,OVC,0.35,WeatherDisplay:10.37,2013-05-21 00:25:00,
2013-05-20 20:27:00,67.9,67.9,30.08,ENE,57,2.4,3.5,100,0.00,BKN,OVC,0.35,WeatherDisplay:10.37,2013-05-21 00:27:00,
2013-05-20 20:29:00,67.6,67.6,30.08,ENE,57,1.4,3.5,100,0.00,BKN,OVC,0.35,WeatherDisplay:10.37,2013-05-21 00:29:00,
2013-05-20 20:30:00,67.6,67.6,30.08,ENE,57,0.5,2.3,100,0.00,BKN,OVC,0.35,WeatherDisplay:10.37,2013-05-21 00:30:00,
2013-05-20 20:33:00,67.4,67.4,30.08,ENE,57,0.0,0.0,100,0.00,BKN,OVC,0.35,WeatherDisplay:10.37,2013-05-21 00:33:00,
2013-05-20 20:34:00,67.4,67.4,30.08,ENE,57,0.0,0.0,100,0.00,BKN,OVC,0.35,WeatherDisplay:10.37,2013-05-21 00:34:00,
2013-05-20 20:35:00,67.4,67.4,30.08,ENE,57,0.0,0.0,100,0.00,BKN,OVC,0.35,WeatherDisplay:10.37,2013-05-21 00:35:00,
2013-05-20 20:36:00,67.4,67.4,30.08,ENE,57,0.0,0.0,100,0.00,BKN,OVC,0.35,WeatherDisplay:10.37,2013-05-21 00:36:00,
2013-05-20 20:38:00,67.4,67.4,30.08,ENE,57,1.2,4.0,100,0.00,BKN,OVC,0.35,WeatherDisplay:10.37,2013-05-21 00:38:00,
2013-05-20 20:41:00,67.4,67.4,30.08,ENE,57,1.9,3.5,100,0.00,BKN,OVC,0.35,WeatherDisplay:10.37,2013-05-21 00:41:00,
2013-05-20 20:42:00,67.4,67.4,30.08,ENE,57,2.1,3.5,100,0.00,BKN,OVC,0.35,WeatherDisplay:10.37,2013-05-21 00:42:00,
2013-05-20 20:43:00,67.3,67.3,30.08,ENE,57,2.6,4.0,100,0.00,BKN,OVC,0.35,WeatherDisplay:10.37,2013-05-21 00:43:00,
2013-05-20 20:44:00,67.3,67.3,30.08,ENE,57,2.7,3.5,100,0.00,BKN,OVC,0.35,WeatherDisplay:10.37,2013-05-21 00:44:00,
2013-05-20 20:47:00,67.1,67.1,30.08,ENE,57,3.6,3.6,100,0.00,BKN,OVC,0.35,WeatherDisplay:10.37,2013-05-21 00:47:00,
2013-05-20 20:48:00,66.9,66.9,30.08,ENE,57,3.6,4.0,100,0.00,BKN,OVC,0.35,WeatherDisplay:10.37,2013-05-21 00:48:00,
2013-05-20 20:49:00,66.9,66.9,30.08,ENE,57,3.6,3.6,100,0.00,BKN,OVC,0.35,WeatherDisplay:10.37,2013-05-21 00:49:00,
2013-05-20 20:50:00,66.9,66.9,30.08,ENE,57,3.6,4.6,100,0.00,BKN,OVC,0.35,WeatherDisplay:10.37,2013-05-21 00:50:00,
2013-05-20 20:54:00,66.8,66.8,30.08,ENE,57,3.2,4.6,100,0.00,BKN,OVC,0.35,WeatherDisplay:10.37,2013-05-21 00:54:00,
2013-05-20 20:55:00,66.8,66.8,30.08,ENE,57,3.2,3.5,100,0.00,BKN,OVC,0.35,WeatherDisplay:10.37,2013-05-21 00:55:00,
2013-05-20 20:56:00,66.6,66.6,30.08,ENE,57,3.2,4.6,100,0.00,BKN,OVC,0.35,WeatherDisplay:10.37,2013-05-21 00:56:00,
2013-05-20 20:57:00,66.6,66.6,30.08,ENE,57,3.5,4.6,100,0.00,BKN,OVC,0.35,WeatherDisplay:10.37,2013-05-21 00:57:00,
2013-05-20 20:59:00,66.6,66.6,30.08,ENE,57,3.4,5.0,100,0.00,BKN,OVC,0.35,WeatherDisplay:10.37,2013-05-21 00:59:00,
2013-05-20 21:00:00,66.4,66.4,30.08,ENE,57,3.3,4.6,100,0.00,BKN,OVC,0.35,WeatherDisplay:10.37,2013-05-21 01:00:00,
2013-05-20 21:02:00,66.6,66.6,30.08,ENE,57,1.6,3.0,100,0.00,BKN,OVC,0.35,WeatherDisplay:10.37,2013-05-21 01:02:00,
2013-05-20 21:03:00,66.6,66.6,30.08,ENE,57,2.5,3.5,100,0.00,BKN,OVC,0.35,WeatherDisplay:10.37,2013-05-21 01:03:00,
2013-05-20 21:04:00,66.6,66.6,30.08,ENE,57,2.0,3.5,100,0.00,BKN,OVC,0.35,WeatherDisplay:10.37,2013-05-21 01:04:00,
2013-05-20 21:07:00,66.6,66.6,30.08,ENE,57,3.0,3.5,100,0.00,BKN,OVC,0.35,WeatherDisplay:10.37,2013-05-21 01:07:00,
2013-05-20 21:09:00,66.6,66.6,30.08,ENE,57,3.2,3.5,100,0.00,BKN,OVC,0.35,WeatherDisplay:10.37,2013-05-21 01:09:00,
2013-05-20 21:10:00,66.6,66.6,30.08,ENE,57,2.9,3.5,100,0.00,BKN,OVC,0.35,WeatherDisplay:10.37,2013-05-21 01:10:00,
2013-05-20 21:11:00,66.6,66.6,30.08,ENE,57,2.6,3.5,100,0.00,BKN,OVC,0.35,WeatherDisplay:10.37,2013-05-21 01:11:00,
2013-05-20 21:13:00,66.6,66.6,30.08,ENE,57,2.0,3.5,100,0.00,BKN,OVC,0.35,WeatherDisplay:10.37,2013-05-21 01:13:00,
2013-05-20 21:14:00,66.6,66.6,30.08,ENE,57,2.7,4.0,100,0.00,BKN,OVC,0.35,WeatherDisplay:10.37,2013-05-21 01:14:00,
2013-05-20 21:15:00,66.6,66.6,30.08,ENE,57,3.0,5.0,100,0.00,BKN,OVC,0.35,WeatherDisplay:10.37,2013-05-21 01:15:00,
2013-05-20 21:19:00,66.8,66.8,30.08,ENE,57,3.3,5.0,100,0.00,BKN,OVC,0.35,WeatherDisplay:10.37,2013-05-21 01:19:00,
2013-05-20 21:20:00,66.8,66.8,30.08,ENE,57,1.1,4.6,100,0.00,BKN,OVC,0.35,WeatherDisplay:10.37,2013-05-21 01:20:00,
2013-05-20 21:21:00,66.8,66.8,30.08,ENE,57,0.2,1.1,100,0.00,BKN,OVC,0.35,WeatherDisplay:10.37,2013-05-21 01:21:00,
2013-05-20 21:24:00,66.9,66.9,30.08,ENE,57,0.0,0.0,100,0.00,BKN,OVC,0.35,WeatherDisplay:10.37,2013-05-21 01:24:00,
2013-05-20 21:27:00,66.9,66.9,30.08,ENE,57,0.0,0.0,100,0.00,BKN,OVC,0.35,WeatherDisplay:10.37,2013-05-21 01:27:00,
2013-05-20 21:28:00,66.9,66.9,30.08,ENE,57,0.0,0.0,100,0.00,BKN,OVC,0.35,WeatherDisplay:10.37,2013-05-21 01:28:00,
2013-05-20 21:29:00,66.9,66.9,30.08,ENE,57,0.0,0.0,100,0.00,BKN,OVC,0.35,WeatherDisplay:10.37,2013-05-21 01:29:00,
2013-05-20 21:32:00,66.8,66.8,30.08,ENE,57,2.1,3.5,100,0.00,BKN,OVC,0.35,WeatherDisplay:10.37,2013-05-21 01:32:00,
2013-05-20 21:34:00,66.8,66.8,30.08,ENE,57,0.4,2.3,100,0.00,BKN,OVC,0.35,WeatherDisplay:10.37,2013-05-21 01:34:00,
2013-05-20 21:35:00,66.8,66.8,30.10,ENE,57,0.0,0.0,100,0.00,BKN,OVC,0.35,WeatherDisplay:10.37,2013-05-21 01:35:00,
2013-05-20 21:39:00,66.6,66.6,30.10,ENE,57,0.0,0.0,100,0.00,BKN,OVC,0.35,WeatherDisplay:10.37,2013-05-21 01:39:00,
2013-05-20 21:40:00,66.6,66.6,30.10,ENE,57,0.0,0.0,100,0.00,BKN,OVC,0.35,WeatherDisplay:10.37,2013-05-21 01:40:00,
2013-05-20 21:41:00,66.6,66.6,30.10,ENE,57,0.0,0.0,100,0.00,BKN,OVC,0.35,WeatherDisplay:10.37,2013-05-21 01:41:00,
2013-05-20 21:43:00,66.6,66.6,30.10,ENE,57,0.0,0.0,100,0.00,BKN,OVC,0.35,WeatherDisplay:10.37,2013-05-21 01:43:00,
2013-05-20 21:47:00,66.6,66.6,30.10,ENE,57,0.4,2.3,100,0.00,BKN,OVC,0.35,WeatherDisplay:10.37,2013-05-21 01:47:00,
2013-05-20 21:48:00,66.8,66.8,30.10,ENE,57,1.8,2.3,100,0.00,BKN,OVC,0.35,WeatherDisplay:10.37,2013-05-21 01:48:00,
2013-05-20 21:51:00,66.4,66.4,30.08,ENE,57,1.5,3.5,100,0.00,BKN,OVC,0.35,WeatherDisplay:10.37,2013-05-21 01:51:00,
2013-05-20 21:54:00,66.4,66.4,30.08,ENE,57,1.8,2.3,100,0.00,BKN,OVC,0.35,WeatherDisplay:10.37,2013-05-21 01:54:00,
2013-05-20 21:57:00,66.4,66.4,30.08,ENE,57,0.0,0.0,100,0.00,BKN,OVC,0.35,WeatherDisplay:10.37,2013-05-21 01:57:00,
2013-05-20 21:58:00,66.4,66.4,30.08,ENE,57,0.0,0.0,100,0.00,BKN,OVC,0.35,WeatherDisplay:10.37,2013-05-21 01:58:00,
2013-05-20 21:59:00,66.3,66.3,30.08,ENE,57,0.2,3.0,100,0.00,BKN,OVC,0.35,WeatherDisplay:10.37,2013-05-21 01:59:00,
2013-05-20 22:00:00,66.3,66.3,30.08,ENE,57,1.2,3.5,100,0.00,BKN,OVC,0.35,WeatherDisplay:10.37,2013-05-21 02:00:00,
2013-05-20 22:01:00,66.3,66.3,30.08,ENE,57,1.8,3.5,100,0.00,BKN,OVC,0.35,WeatherDisplay:10.37,2013-05-21 02:01:00,
2013-05-20 22:04:00,66.3,66.3,30.08,ENE,57,0.0,0.0,100,0.00,BKN,OVC,0.35,WeatherDisplay:10.37,2013-05-21 02:04:00,
2013-05-20 22:05:00,66.1,66.1,30.08,ENE,57,0.0,0.0,100,0.00,BKN,OVC,0.35,WeatherDisplay:10.37,2013-05-21 02:05:00,
2013-05-20 22:06:00,66.1,66.1,30.08,ENE,57,0.0,0.0,100,0.00,BKN,OVC,0.35,WeatherDisplay:10.37,2013-05-21 02:06:00,
2013-05-20 22:07:00,66.1,66.1,30.08,ENE,57,0.0,0.0,100,0.00,BKN,OVC,0.35,WeatherDisplay:10.37,2013-05-21 02:07:00,
2013-05-20 22:09:00,66.0,66.0,30.08,ENE,57,0.0,0.0,100,0.00,BKN,OVC,0.35,WeatherDisplay:10.37,2013-05-21 02:09:00,
2013-05-20 22:10:00,66.0,66.0,30.08,ENE,57,0.0,0.0,100,0.00,BKN,OVC,0.35,WeatherDisplay:10.37,2013-05-21 02:10:00,
2013-05-20 22:11:00,66.0,66.0,30.08,ENE,57,0.0,0.0,100,0.00,BKN,OVC,0.35,WeatherDisplay:10.37,2013-05-21 02:11:00,
2013-05-20 22:12:00,66.0,66.0,30.08,ENE,57,0.0,0.0,100,0.00,BKN,OVC,0.35,WeatherDisplay:10.37,2013-05-21 02:12:00,
2013-05-20 22:15:00,65.8,65.8,30.08,ENE,57,0.0,0.0,100,0.00,BKN,OVC,0.35,WeatherDisplay:10.37,2013-05-21 02:15:00,
2013-05-20 22:17:00,65.6,65.6,30.08,ENE,57,0.0,0.0,100,0.00,BKN,OVC,0.35,WeatherDisplay:10.37,2013-05-21 02:17:00,
2013-05-20 22:19:00,65.6,65.6,30.08,ENE,57,0.0,0.0,100,0.00,BKN,OVC,0.35,WeatherDisplay:10.37,2013-05-21 02:19:00,
2013-05-20 22:20:00,65.6,65.6,30.08,ENE,57,0.0,0.0,100,0.00,BKN,OVC,0.35,WeatherDisplay:10.37,2013-05-21 02:20:00,
2013-05-20 22:23:00,65.6,65.6,30.08,ENE,57,0.0,0.0,100,0.00,BKN,OVC,0.35,WeatherDisplay:10.37,2013-05-21 02:23:00,
2013-05-20 22:25:00,65.6,65.6,30.08,ENE,57,0.0,0.0,100,0.00,BKN,OVC,0.35,WeatherDisplay:10.37,2013-05-21 02:25:00,
2013-05-20 22:29:00,65.6,65.6,30.08,ENE,57,0.0,0.0,100,0.00,BKN,OVC,0.35,WeatherDisplay:10.37,2013-05-21 02:29:00,
2013-05-20 22:30:00,65.5,65.5,30.08,ENE,57,0.0,0.0,100,0.00,BKN,OVC,0.35,WeatherDisplay:10.37,2013-05-21 02:30:00,
2013-05-20 22:31:00,65.5,65.5,30.08,ENE,57,0.0,0.0,100,0.00,BKN,OVC,0.35,WeatherDisplay:10.37,2013-05-21 02:31:00,
2013-05-20 22:32:00,65.3,65.3,30.08,ENE,57,0.0,0.0,100,0.00,BKN,OVC,0.35,WeatherDisplay:10.37,2013-05-21 02:32:00,
2013-05-20 22:34:00,65.2,65.2,30.08,ENE,57,0.0,0.0,100,0.00,BKN,OVC,0.35,WeatherDisplay:10.37,2013-05-21 02:34:00,
2013-05-20 22:36:00,65.2,65.2,30.08,ENE,57,0.0,0.0,100,0.00,BKN,OVC,0.35,WeatherDisplay:10.37,2013-05-21 02:36:00,
2013-05-20 22:37:00,65.2,65.2,30.08,ENE,57,0.0,0.0,100,0.00,BKN,OVC,0.35,WeatherDisplay:10.37,2013-05-21 02:37:00,
2013-05-20 22:38:00,65.3,65.3,30.08,ENE,57,0.0,0.0,100,0.00,BKN,OVC,0.35,WeatherDisplay:10.37,2013-05-21 02:38:00,
2013-05-20 22:40:00,65.3,65.3,30.08,ENE,57,0.0,0.0,100,0.00,BKN,OVC,0.35,WeatherDisplay:10.37,2013-05-21 02:40:00,
2013-05-20 22:41:00,65.3,65.3,30.08,ENE,57,1.8,3.5,100,0.00,BKN,OVC,0.35,WeatherDisplay:10.37,2013-05-21 02:41:00,
2013-05-20 22:43:00,65.2,65.2,30.08,ENE,57,1.5,2.3,100,0.00,BKN,OVC,0.35,WeatherDisplay:10.37,2013-05-21 02:43:00,
2013-05-20 22:45:00,65.2,65.2,30.08,ENE,57,0.0,3.0,100,0.00,BKN,OVC,0.35,WeatherDisplay:10.37,2013-05-21 02:45:00,
2013-05-20 22:46:00,65.2,65.2,30.08,ENE,57,1.0,2.0,100,0.00,BKN,OVC,0.35,WeatherDisplay:10.37,2013-05-21 02:46:00,
2013-05-20 22:50:00,65.3,65.3,30.07,ENE,57,2.4,3.5,100,0.00,BKN,OVC,0.35,WeatherDisplay:10.37,2013-05-21 02:50:00,
2013-05-20 22:52:00,65.5,65.5,30.07,ENE,58,3.3,4.6,100,0.00,BKN,OVC,0.35,WeatherDisplay:10.37,2013-05-21 02:52:00,
2013-05-20 22:53:00,65.5,65.5,30.07,ENE,58,2.8,3.5,100,0.00,BKN,OVC,0.35,WeatherDisplay:10.37,2013-05-21 02:53:00,
2013-05-20 22:56:00,65.5,65.5,30.07,East,80,4.4,5.8,100,0.00,BKN,OVC,0.35,WeatherDisplay:10.37,2013-05-21 02:56:00,
2013-05-20 22:57:00,65.5,65.5,30.07,East,80,3.5,4.6,100,0.00,BKN,OVC,0.35,WeatherDisplay:10.37,2013-05-21 02:57:00,
2013-05-20 22:58:00,65.5,65.5,30.07,East,80,3.4,3.5,100,0.00,BKN,OVC,0.35,WeatherDisplay:10.37,2013-05-21 02:58:00,
2013-05-20 22:59:00,65.5,65.5,30.07,East,80,3.2,4.0,100,0.00,BKN,OVC,0.35,WeatherDisplay:10.37,2013-05-21 02:59:00,
2013-05-20 23:00:00,65.5,65.5,30.07,East,80,3.1,4.0,100,0.00,BKN,OVC,0.35,WeatherDisplay:10.37,2013-05-21 03:00:00,
2013-05-20 23:02:00,65.5,65.5,30.07,East,80,3.1,3.5,100,0.00,BKN,OVC,0.35,WeatherDisplay:10.37,2013-05-21 03:02:00,
2013-05-20 23:03:00,65.5,65.5,30.07,East,80,2.4,3.5,100,0.00,BKN,OVC,0.35,WeatherDisplay:10.37,2013-05-21 03:03:00,
2013-05-20 23:04:00,65.5,65.5,30.07,East,80,2.2,3.5,100,0.00,BKN,OVC,0.35,WeatherDisplay:10.37,2013-05-21 03:04:00,
2013-05-20 23:07:00,65.5,65.5,30.07,East,80,0.0,1.1,100,0.00,BKN,OVC,0.35,WeatherDisplay:10.37,2013-05-21 03:07:00,
2013-05-20 23:08:00,65.5,65.5,30.07,East,80,0.0,0.0,100,0.00,BKN,OVC,0.35,WeatherDisplay:10.37,2013-05-21 03:08:00,
2013-05-20 23:09:00,65.5,65.5,30.07,East,80,0.0,0.0,100,0.00,BKN,OVC,0.35,WeatherDisplay:10.37,2013-05-21 03:09:00,
2013-05-20 23:11:00,65.5,65.5,30.07,East,80,0.0,0.0,100,0.00,BKN,OVC,0.35,WeatherDisplay:10.37,2013-05-21 03:11:00,
2013-05-20 23:13:00,65.5,65.5,30.07,East,80,0.0,0.0,100,0.00,BKN,OVC,0.35,WeatherDisplay:10.37,2013-05-21 03:13:00,
2013-05-20 23:15:00,65.3,65.3,30.07,East,80,0.0,0.0,100,0.00,BKN,OVC,0.35,WeatherDisplay:10.37,2013-05-21 03:15:00,
2013-05-20 23:18:00,65.2,65.2,30.07,East,80,0.0,0.0,100,0.00,BKN,OVC,0.35,WeatherDisplay:10.37,2013-05-21 03:18:00,
2013-05-20 23:19:00,65.2,65.2,30.07,East,80,0.0,0.0,100,0.00,BKN,OVC,0.35,WeatherDisplay:10.37,2013-05-21 03:19:00,
2013-05-20 23:23:00,65.3,65.3,30.07,East,80,3.1,3.5,100,0.00,BKN,OVC,0.35,WeatherDisplay:10.37,2013-05-21 03:23:00,
2013-05-20 23:24:00,65.5,65.5,30.07,East,80,3.8,3.8,100,0.00,BKN,OVC,0.35,WeatherDisplay:10.37,2013-05-21 03:24:00,
2013-05-20 23:26:00,65.6,65.6,30.07,East,80,2.6,3.5,100,0.00,BKN,OVC,0.35,WeatherDisplay:10.37,2013-05-21 03:26:00,
2013-05-20 23:28:00,65.6,65.6,30.07,East,80,1.2,3.5,100,0.00,BKN,OVC,0.35,WeatherDisplay:10.37,2013-05-21 03:28:00,
2013-05-20 23:29:00,65.6,65.6,30.07,East,80,0.0,1.1,100,0.00,BKN,OVC,0.35,WeatherDisplay:10.37,2013-05-21 03:29:00,
2013-05-20 23:30:00,65.6,65.6,30.07,East,80,0.0,5.0,100,0.00,BKN,OVC,0.35,WeatherDisplay:10.37,2013-05-21 03:30:00,
2013-05-20 23:33:00,65.6,65.6,30.07,East,80,0.0,0.0,100,0.00,BKN,OVC,0.35,WeatherDisplay:10.37,2013-05-21 03:33:00,
2013-05-20 23:35:00,65.6,65.6,30.07,East,80,0.0,0.0,100,0.00,BKN,OVC,0.35,WeatherDisplay:10.37,2013-05-21 03:35:00,
2013-05-20 23:36:00,65.6,65.6,30.07,East,80,0.0,0.0,100,0.00,BKN,OVC,0.35,WeatherDisplay:10.37,2013-05-21 03:36:00,
2013-05-20 23:37:00,65.6,65.6,30.07,East,80,0.0,0.0,100,0.00,BKN,OVC,0.35,WeatherDisplay:10.37,2013-05-21 03:37:00,
2013-05-20 23:38:00,65.6,65.6,30.07,East,80,0.0,0.0,100,0.00,BKN,OVC,0.35,WeatherDisplay:10.37,2013-05-21 03:38:00,
2013-05-20 23:40:00,65.5,65.5,30.07,East,80,0.0,0.0,100,0.00,BKN,OVC,0.35,WeatherDisplay:10.37,2013-05-21 03:40:00,
2013-05-20 23:41:00,65.5,65.5,30.07,East,80,0.0,0.0,100,0.00,BKN,OVC,0.35,WeatherDisplay:10.37,2013-05-21 03:41:00,
2013-05-20 23:44:00,65.6,65.6,30.07,East,80,0.0,0.0,100,0.00,BKN,OVC,0.35,WeatherDisplay:10.37,2013-05-21 03:44:00,
2013-05-20 23:45:00,65.6,65.6,30.07,East,80,1.9,4.0,100,0.00,BKN,OVC,0.35,WeatherDisplay:10.37,2013-05-21 03:45:00,
2013-05-20 23:46:00,65.6,65.6,30.07,East,80,3.3,3.5,100,0.00,BKN,OVC,0.35,WeatherDisplay:10.37,2013-05-21 03:46:00,
2013-05-20 23:47:00,65.6,65.6,30.07,East,80,4.6,6.9,100,0.00,BKN,OVC,0.35,WeatherDisplay:10.37,2013-05-21 03:47:00,
2013-05-20 23:49:00,65.8,65.8,30.07,East,80,1.2,4.6,100,0.00,BKN,OVC,0.35,WeatherDisplay:10.37,2013-05-21 03:49:00,
2013-05-20 23:51:00,66.0,66.0,30.07,East,84,4.1,6.0,100,0.00,BKN,OVC,0.35,WeatherDisplay:10.37,2013-05-21 03:51:00,
2013-05-20 23:52:00,66.0,66.0,30.07,East,85,4.9,5.8,100,0.00,BKN,OVC,0.35,WeatherDisplay:10.37,2013-05-21 03:52:00,
2013-05-20 23:54:00,66.1,66.1,30.07,East,85,2.7,4.0,100,0.00,BKN,OVC,0.35,WeatherDisplay:10.37,2013-05-21 03:54:00,
2013-05-20 23:56:00,66.1,66.1,30.07,East,96,4.5,7.0,100,0.00,BKN,OVC,0.35,WeatherDisplay:10.37,2013-05-21 03:56:00,
2013-05-20 23:57:00,66.1,66.1,30.07,East,96,5.0,6.9,100,0.00,BKN,OVC,0.35,WeatherDisplay:10.37,2013-05-21 03:57:00,
2013-05-20 23:58:00,66.3,66.3,30.07,East,97,4.3,5.8,100,0.00,BKN,OVC,0.35,WeatherDisplay:10.37,2013-05-21 03:58:00,